<?xml version="1.0" encoding="UTF-8" standalone="no" ?>
<gpx xmlns="http://www.topografix.com/GPX/1/1" xmlns:xsi="http://www.w3.org/2001/XMLSchema-instance" xsi:schemaLocation="http://www.topografix.com/GPX/1/1 http://www.topografix.com/GPX/1/1/gpx.xsd" version="1.1" creator="VisuGPX - https://www.visugpx.com">
  <metadata>
    <name>Course à pied en soirée</name>
  </metadata>
  <trk>
    <name><![CDATA[Course à pied en soirée_1]]></name>
    <trkseg>
      <trkpt lat="43.64545" lon="1.37987">
        <ele>147</ele>
        <time>2023-06-23T16:36:04Z</time>
      </trkpt>
      <trkpt lat="43.64547" lon="1.37986">
        <ele>147</ele>
        <time>2023-06-23T16:36:05Z</time>
      </trkpt>
      <trkpt lat="43.64548" lon="1.37986">
        <ele>147</ele>
        <time>2023-06-23T16:36:06Z</time>
      </trkpt>
      <trkpt lat="43.64549" lon="1.37986">
        <ele>146</ele>
        <time>2023-06-23T16:36:07Z</time>
      </trkpt>
      <trkpt lat="43.6455" lon="1.37985">
        <ele>146</ele>
        <time>2023-06-23T16:36:08Z</time>
      </trkpt>
      <trkpt lat="43.64551" lon="1.37985">
        <ele>146</ele>
        <time>2023-06-23T16:36:09Z</time>
      </trkpt>
      <trkpt lat="43.64552" lon="1.37985">
        <ele>146</ele>
        <time>2023-06-23T16:36:10Z</time>
      </trkpt>
      <trkpt lat="43.64552" lon="1.37985">
        <ele>146</ele>
        <time>2023-06-23T16:36:11Z</time>
      </trkpt>
      <trkpt lat="43.64554" lon="1.37984">
        <ele>146</ele>
        <time>2023-06-23T16:36:12Z</time>
      </trkpt>
      <trkpt lat="43.64554" lon="1.37984">
        <ele>146</ele>
        <time>2023-06-23T16:36:13Z</time>
      </trkpt>
      <trkpt lat="43.64556" lon="1.37983">
        <ele>146</ele>
        <time>2023-06-23T16:36:14Z</time>
      </trkpt>
      <trkpt lat="43.64557" lon="1.37982">
        <ele>147</ele>
        <time>2023-06-23T16:36:15Z</time>
      </trkpt>
      <trkpt lat="43.64557" lon="1.37982">
        <ele>147</ele>
        <time>2023-06-23T16:36:16Z</time>
      </trkpt>
      <trkpt lat="43.64557" lon="1.37982">
        <ele>147</ele>
        <time>2023-06-23T16:36:17Z</time>
      </trkpt>
      <trkpt lat="43.64559" lon="1.37979">
        <ele>147</ele>
        <time>2023-06-23T16:36:18Z</time>
      </trkpt>
      <trkpt lat="43.64559" lon="1.37979">
        <ele>147</ele>
        <time>2023-06-23T16:36:19Z</time>
      </trkpt>
      <trkpt lat="43.64561" lon="1.37976">
        <ele>146</ele>
        <time>2023-06-23T16:36:20Z</time>
      </trkpt>
      <trkpt lat="43.64561" lon="1.37976">
        <ele>146</ele>
        <time>2023-06-23T16:36:21Z</time>
      </trkpt>
      <trkpt lat="43.64562" lon="1.37974">
        <ele>146</ele>
        <time>2023-06-23T16:36:22Z</time>
      </trkpt>
      <trkpt lat="43.64562" lon="1.37974">
        <ele>146</ele>
        <time>2023-06-23T16:36:23Z</time>
      </trkpt>
      <trkpt lat="43.64564" lon="1.37971">
        <ele>146</ele>
        <time>2023-06-23T16:36:24Z</time>
      </trkpt>
      <trkpt lat="43.64564" lon="1.37971">
        <ele>146</ele>
        <time>2023-06-23T16:36:25Z</time>
      </trkpt>
      <trkpt lat="43.64565" lon="1.37968">
        <ele>146</ele>
        <time>2023-06-23T16:36:26Z</time>
      </trkpt>
      <trkpt lat="43.64565" lon="1.37968">
        <ele>146</ele>
        <time>2023-06-23T16:36:27Z</time>
      </trkpt>
      <trkpt lat="43.64567" lon="1.37966">
        <ele>146</ele>
        <time>2023-06-23T16:36:28Z</time>
      </trkpt>
      <trkpt lat="43.64567" lon="1.37966">
        <ele>146</ele>
        <time>2023-06-23T16:36:29Z</time>
      </trkpt>
      <trkpt lat="43.64568" lon="1.37963">
        <ele>146</ele>
        <time>2023-06-23T16:36:30Z</time>
      </trkpt>
      <trkpt lat="43.64568" lon="1.37963">
        <ele>146</ele>
        <time>2023-06-23T16:36:31Z</time>
      </trkpt>
      <trkpt lat="43.64568" lon="1.3796">
        <ele>146</ele>
        <time>2023-06-23T16:36:32Z</time>
      </trkpt>
      <trkpt lat="43.64568" lon="1.3796">
        <ele>146</ele>
        <time>2023-06-23T16:36:33Z</time>
      </trkpt>
      <trkpt lat="43.64569" lon="1.37957">
        <ele>146</ele>
        <time>2023-06-23T16:36:34Z</time>
      </trkpt>
      <trkpt lat="43.64569" lon="1.37957">
        <ele>146</ele>
        <time>2023-06-23T16:36:35Z</time>
      </trkpt>
      <trkpt lat="43.64569" lon="1.37953">
        <ele>146</ele>
        <time>2023-06-23T16:36:36Z</time>
      </trkpt>
      <trkpt lat="43.64569" lon="1.37953">
        <ele>146</ele>
        <time>2023-06-23T16:36:37Z</time>
      </trkpt>
      <trkpt lat="43.64569" lon="1.3795">
        <ele>146</ele>
        <time>2023-06-23T16:36:38Z</time>
      </trkpt>
      <trkpt lat="43.64569" lon="1.3795">
        <ele>146</ele>
        <time>2023-06-23T16:36:39Z</time>
      </trkpt>
      <trkpt lat="43.64569" lon="1.37947">
        <ele>146</ele>
        <time>2023-06-23T16:36:40Z</time>
      </trkpt>
      <trkpt lat="43.64569" lon="1.37947">
        <ele>145</ele>
        <time>2023-06-23T16:36:41Z</time>
      </trkpt>
      <trkpt lat="43.64569" lon="1.37943">
        <ele>145</ele>
        <time>2023-06-23T16:36:42Z</time>
      </trkpt>
      <trkpt lat="43.64569" lon="1.37943">
        <ele>145</ele>
        <time>2023-06-23T16:36:43Z</time>
      </trkpt>
      <trkpt lat="43.64569" lon="1.3794">
        <ele>145</ele>
        <time>2023-06-23T16:36:44Z</time>
      </trkpt>
      <trkpt lat="43.64569" lon="1.3794">
        <ele>145</ele>
        <time>2023-06-23T16:36:45Z</time>
      </trkpt>
      <trkpt lat="43.64569" lon="1.37937">
        <ele>145</ele>
        <time>2023-06-23T16:36:46Z</time>
      </trkpt>
      <trkpt lat="43.64569" lon="1.37937">
        <ele>145</ele>
        <time>2023-06-23T16:36:47Z</time>
      </trkpt>
      <trkpt lat="43.64568" lon="1.37934">
        <ele>145</ele>
        <time>2023-06-23T16:36:48Z</time>
      </trkpt>
      <trkpt lat="43.64568" lon="1.37934">
        <ele>145</ele>
        <time>2023-06-23T16:36:49Z</time>
      </trkpt>
      <trkpt lat="43.64567" lon="1.37932">
        <ele>145</ele>
        <time>2023-06-23T16:36:50Z</time>
      </trkpt>
      <trkpt lat="43.64567" lon="1.37932">
        <ele>145</ele>
        <time>2023-06-23T16:36:51Z</time>
      </trkpt>
      <trkpt lat="43.64567" lon="1.37929">
        <ele>145</ele>
        <time>2023-06-23T16:36:52Z</time>
      </trkpt>
      <trkpt lat="43.64567" lon="1.37929">
        <ele>145</ele>
        <time>2023-06-23T16:36:53Z</time>
      </trkpt>
      <trkpt lat="43.64566" lon="1.37926">
        <ele>146</ele>
        <time>2023-06-23T16:36:54Z</time>
      </trkpt>
      <trkpt lat="43.64566" lon="1.37926">
        <ele>146</ele>
        <time>2023-06-23T16:36:55Z</time>
      </trkpt>
      <trkpt lat="43.64565" lon="1.37923">
        <ele>146</ele>
        <time>2023-06-23T16:36:56Z</time>
      </trkpt>
      <trkpt lat="43.64565" lon="1.37923">
        <ele>146</ele>
        <time>2023-06-23T16:36:57Z</time>
      </trkpt>
      <trkpt lat="43.64564" lon="1.3792">
        <ele>146</ele>
        <time>2023-06-23T16:36:58Z</time>
      </trkpt>
      <trkpt lat="43.64564" lon="1.3792">
        <ele>146</ele>
        <time>2023-06-23T16:36:59Z</time>
      </trkpt>
      <trkpt lat="43.64562" lon="1.37917">
        <ele>146</ele>
        <time>2023-06-23T16:37:00Z</time>
      </trkpt>
      <trkpt lat="43.64562" lon="1.37917">
        <ele>146</ele>
        <time>2023-06-23T16:37:01Z</time>
      </trkpt>
      <trkpt lat="43.64561" lon="1.37915">
        <ele>146</ele>
        <time>2023-06-23T16:37:02Z</time>
      </trkpt>
      <trkpt lat="43.64561" lon="1.37915">
        <ele>146</ele>
        <time>2023-06-23T16:37:03Z</time>
      </trkpt>
      <trkpt lat="43.64559" lon="1.37913">
        <ele>146</ele>
        <time>2023-06-23T16:37:04Z</time>
      </trkpt>
      <trkpt lat="43.64559" lon="1.37913">
        <ele>146</ele>
        <time>2023-06-23T16:37:05Z</time>
      </trkpt>
      <trkpt lat="43.64558" lon="1.37911">
        <ele>146</ele>
        <time>2023-06-23T16:37:06Z</time>
      </trkpt>
      <trkpt lat="43.64558" lon="1.37911">
        <ele>146</ele>
        <time>2023-06-23T16:37:07Z</time>
      </trkpt>
      <trkpt lat="43.64556" lon="1.37909">
        <ele>146</ele>
        <time>2023-06-23T16:37:08Z</time>
      </trkpt>
      <trkpt lat="43.64556" lon="1.37909">
        <ele>145</ele>
        <time>2023-06-23T16:37:09Z</time>
      </trkpt>
      <trkpt lat="43.64554" lon="1.37908">
        <ele>145</ele>
        <time>2023-06-23T16:37:10Z</time>
      </trkpt>
      <trkpt lat="43.64554" lon="1.37908">
        <ele>145</ele>
        <time>2023-06-23T16:37:11Z</time>
      </trkpt>
      <trkpt lat="43.64552" lon="1.37906">
        <ele>145</ele>
        <time>2023-06-23T16:37:12Z</time>
      </trkpt>
      <trkpt lat="43.64552" lon="1.37906">
        <ele>145</ele>
        <time>2023-06-23T16:37:13Z</time>
      </trkpt>
      <trkpt lat="43.6455" lon="1.37904">
        <ele>145</ele>
        <time>2023-06-23T16:37:14Z</time>
      </trkpt>
      <trkpt lat="43.6455" lon="1.37904">
        <ele>145</ele>
        <time>2023-06-23T16:37:15Z</time>
      </trkpt>
      <trkpt lat="43.64548" lon="1.37904">
        <ele>145</ele>
        <time>2023-06-23T16:37:16Z</time>
      </trkpt>
      <trkpt lat="43.64548" lon="1.37904">
        <ele>145</ele>
        <time>2023-06-23T16:37:17Z</time>
      </trkpt>
      <trkpt lat="43.64547" lon="1.37902">
        <ele>145</ele>
        <time>2023-06-23T16:37:18Z</time>
      </trkpt>
      <trkpt lat="43.64547" lon="1.37902">
        <ele>145</ele>
        <time>2023-06-23T16:37:19Z</time>
      </trkpt>
      <trkpt lat="43.64545" lon="1.37901">
        <ele>145</ele>
        <time>2023-06-23T16:37:20Z</time>
      </trkpt>
      <trkpt lat="43.64545" lon="1.37901">
        <ele>145</ele>
        <time>2023-06-23T16:37:21Z</time>
      </trkpt>
      <trkpt lat="43.64543" lon="1.379">
        <ele>145</ele>
        <time>2023-06-23T16:37:22Z</time>
      </trkpt>
      <trkpt lat="43.64543" lon="1.379">
        <ele>145</ele>
        <time>2023-06-23T16:37:23Z</time>
      </trkpt>
      <trkpt lat="43.64541" lon="1.37899">
        <ele>145</ele>
        <time>2023-06-23T16:37:24Z</time>
      </trkpt>
      <trkpt lat="43.64541" lon="1.37899">
        <ele>145</ele>
        <time>2023-06-23T16:37:25Z</time>
      </trkpt>
      <trkpt lat="43.64539" lon="1.37898">
        <ele>145</ele>
        <time>2023-06-23T16:37:26Z</time>
      </trkpt>
      <trkpt lat="43.64539" lon="1.37898">
        <ele>145</ele>
        <time>2023-06-23T16:37:27Z</time>
      </trkpt>
      <trkpt lat="43.64536" lon="1.37896">
        <ele>145</ele>
        <time>2023-06-23T16:37:28Z</time>
      </trkpt>
      <trkpt lat="43.64536" lon="1.37896">
        <ele>145</ele>
        <time>2023-06-23T16:37:29Z</time>
      </trkpt>
      <trkpt lat="43.64534" lon="1.37895">
        <ele>145</ele>
        <time>2023-06-23T16:37:30Z</time>
      </trkpt>
      <trkpt lat="43.64534" lon="1.37895">
        <ele>145</ele>
        <time>2023-06-23T16:37:31Z</time>
      </trkpt>
      <trkpt lat="43.64532" lon="1.37894">
        <ele>145</ele>
        <time>2023-06-23T16:37:32Z</time>
      </trkpt>
      <trkpt lat="43.64532" lon="1.37894">
        <ele>145</ele>
        <time>2023-06-23T16:37:33Z</time>
      </trkpt>
      <trkpt lat="43.6453" lon="1.37893">
        <ele>145</ele>
        <time>2023-06-23T16:37:34Z</time>
      </trkpt>
      <trkpt lat="43.6453" lon="1.37893">
        <ele>146</ele>
        <time>2023-06-23T16:37:35Z</time>
      </trkpt>
      <trkpt lat="43.64528" lon="1.37892">
        <ele>146</ele>
        <time>2023-06-23T16:37:36Z</time>
      </trkpt>
      <trkpt lat="43.64528" lon="1.37892">
        <ele>145</ele>
        <time>2023-06-23T16:37:37Z</time>
      </trkpt>
      <trkpt lat="43.64527" lon="1.3789">
        <ele>145</ele>
        <time>2023-06-23T16:37:38Z</time>
      </trkpt>
      <trkpt lat="43.64527" lon="1.3789">
        <ele>145</ele>
        <time>2023-06-23T16:37:39Z</time>
      </trkpt>
      <trkpt lat="43.64525" lon="1.37889">
        <ele>146</ele>
        <time>2023-06-23T16:37:40Z</time>
      </trkpt>
      <trkpt lat="43.64525" lon="1.37889">
        <ele>146</ele>
        <time>2023-06-23T16:37:41Z</time>
      </trkpt>
      <trkpt lat="43.64523" lon="1.37887">
        <ele>146</ele>
        <time>2023-06-23T16:37:42Z</time>
      </trkpt>
      <trkpt lat="43.64523" lon="1.37887">
        <ele>146</ele>
        <time>2023-06-23T16:37:43Z</time>
      </trkpt>
      <trkpt lat="43.6452" lon="1.37886">
        <ele>146</ele>
        <time>2023-06-23T16:37:44Z</time>
      </trkpt>
      <trkpt lat="43.6452" lon="1.37886">
        <ele>145</ele>
        <time>2023-06-23T16:37:45Z</time>
      </trkpt>
      <trkpt lat="43.64518" lon="1.37886">
        <ele>145</ele>
        <time>2023-06-23T16:37:46Z</time>
      </trkpt>
      <trkpt lat="43.64518" lon="1.37886">
        <ele>145</ele>
        <time>2023-06-23T16:37:47Z</time>
      </trkpt>
      <trkpt lat="43.64516" lon="1.37885">
        <ele>145</ele>
        <time>2023-06-23T16:37:48Z</time>
      </trkpt>
      <trkpt lat="43.64516" lon="1.37885">
        <ele>145</ele>
        <time>2023-06-23T16:37:49Z</time>
      </trkpt>
      <trkpt lat="43.64515" lon="1.37884">
        <ele>145</ele>
        <time>2023-06-23T16:37:50Z</time>
      </trkpt>
      <trkpt lat="43.64515" lon="1.37884">
        <ele>145</ele>
        <time>2023-06-23T16:37:51Z</time>
      </trkpt>
      <trkpt lat="43.64513" lon="1.37883">
        <ele>145</ele>
        <time>2023-06-23T16:37:52Z</time>
      </trkpt>
      <trkpt lat="43.64513" lon="1.37883">
        <ele>145</ele>
        <time>2023-06-23T16:37:53Z</time>
      </trkpt>
      <trkpt lat="43.6451" lon="1.37882">
        <ele>145</ele>
        <time>2023-06-23T16:37:54Z</time>
      </trkpt>
      <trkpt lat="43.6451" lon="1.37882">
        <ele>145</ele>
        <time>2023-06-23T16:37:55Z</time>
      </trkpt>
      <trkpt lat="43.64508" lon="1.37881">
        <ele>145</ele>
        <time>2023-06-23T16:37:56Z</time>
      </trkpt>
      <trkpt lat="43.64508" lon="1.37881">
        <ele>145</ele>
        <time>2023-06-23T16:37:57Z</time>
      </trkpt>
      <trkpt lat="43.64506" lon="1.37879">
        <ele>145</ele>
        <time>2023-06-23T16:37:58Z</time>
      </trkpt>
      <trkpt lat="43.64506" lon="1.37879">
        <ele>145</ele>
        <time>2023-06-23T16:37:59Z</time>
      </trkpt>
      <trkpt lat="43.64503" lon="1.37878">
        <ele>145</ele>
        <time>2023-06-23T16:38:00Z</time>
      </trkpt>
      <trkpt lat="43.64503" lon="1.37878">
        <ele>145</ele>
        <time>2023-06-23T16:38:01Z</time>
      </trkpt>
      <trkpt lat="43.64501" lon="1.37876">
        <ele>145</ele>
        <time>2023-06-23T16:38:02Z</time>
      </trkpt>
      <trkpt lat="43.64501" lon="1.37876">
        <ele>145</ele>
        <time>2023-06-23T16:38:03Z</time>
      </trkpt>
      <trkpt lat="43.64499" lon="1.37875">
        <ele>145</ele>
        <time>2023-06-23T16:38:04Z</time>
      </trkpt>
      <trkpt lat="43.64499" lon="1.37875">
        <ele>145</ele>
        <time>2023-06-23T16:38:05Z</time>
      </trkpt>
      <trkpt lat="43.64498" lon="1.37873">
        <ele>145</ele>
        <time>2023-06-23T16:38:06Z</time>
      </trkpt>
      <trkpt lat="43.64498" lon="1.37873">
        <ele>145</ele>
        <time>2023-06-23T16:38:07Z</time>
      </trkpt>
      <trkpt lat="43.64496" lon="1.37872">
        <ele>145</ele>
        <time>2023-06-23T16:38:08Z</time>
      </trkpt>
      <trkpt lat="43.64496" lon="1.37872">
        <ele>145</ele>
        <time>2023-06-23T16:38:09Z</time>
      </trkpt>
      <trkpt lat="43.64494" lon="1.37871">
        <ele>145</ele>
        <time>2023-06-23T16:38:10Z</time>
      </trkpt>
      <trkpt lat="43.64494" lon="1.37871">
        <ele>145</ele>
        <time>2023-06-23T16:38:11Z</time>
      </trkpt>
      <trkpt lat="43.64491" lon="1.3787">
        <ele>145</ele>
        <time>2023-06-23T16:38:12Z</time>
      </trkpt>
      <trkpt lat="43.64491" lon="1.3787">
        <ele>145</ele>
        <time>2023-06-23T16:38:13Z</time>
      </trkpt>
      <trkpt lat="43.64489" lon="1.3787">
        <ele>145</ele>
        <time>2023-06-23T16:38:14Z</time>
      </trkpt>
      <trkpt lat="43.64489" lon="1.3787">
        <ele>145</ele>
        <time>2023-06-23T16:38:15Z</time>
      </trkpt>
      <trkpt lat="43.64487" lon="1.37871">
        <ele>145</ele>
        <time>2023-06-23T16:38:16Z</time>
      </trkpt>
      <trkpt lat="43.64487" lon="1.37871">
        <ele>145</ele>
        <time>2023-06-23T16:38:17Z</time>
      </trkpt>
      <trkpt lat="43.64484" lon="1.37871">
        <ele>145</ele>
        <time>2023-06-23T16:38:18Z</time>
      </trkpt>
      <trkpt lat="43.64484" lon="1.37871">
        <ele>145</ele>
        <time>2023-06-23T16:38:19Z</time>
      </trkpt>
      <trkpt lat="43.64482" lon="1.37871">
        <ele>145</ele>
        <time>2023-06-23T16:38:20Z</time>
      </trkpt>
      <trkpt lat="43.64482" lon="1.37871">
        <ele>145</ele>
        <time>2023-06-23T16:38:21Z</time>
      </trkpt>
      <trkpt lat="43.6448" lon="1.37872">
        <ele>145</ele>
        <time>2023-06-23T16:38:22Z</time>
      </trkpt>
      <trkpt lat="43.6448" lon="1.37872">
        <ele>145</ele>
        <time>2023-06-23T16:38:23Z</time>
      </trkpt>
      <trkpt lat="43.64478" lon="1.37872">
        <ele>145</ele>
        <time>2023-06-23T16:38:24Z</time>
      </trkpt>
      <trkpt lat="43.64478" lon="1.37872">
        <ele>145</ele>
        <time>2023-06-23T16:38:25Z</time>
      </trkpt>
      <trkpt lat="43.64476" lon="1.37874">
        <ele>145</ele>
        <time>2023-06-23T16:38:26Z</time>
      </trkpt>
      <trkpt lat="43.64476" lon="1.37874">
        <ele>145</ele>
        <time>2023-06-23T16:38:27Z</time>
      </trkpt>
      <trkpt lat="43.64474" lon="1.37874">
        <ele>145</ele>
        <time>2023-06-23T16:38:28Z</time>
      </trkpt>
      <trkpt lat="43.64474" lon="1.37874">
        <ele>145</ele>
        <time>2023-06-23T16:38:29Z</time>
      </trkpt>
      <trkpt lat="43.64472" lon="1.37876">
        <ele>145</ele>
        <time>2023-06-23T16:38:30Z</time>
      </trkpt>
      <trkpt lat="43.64472" lon="1.37876">
        <ele>145</ele>
        <time>2023-06-23T16:38:31Z</time>
      </trkpt>
      <trkpt lat="43.64471" lon="1.37877">
        <ele>145</ele>
        <time>2023-06-23T16:38:32Z</time>
      </trkpt>
      <trkpt lat="43.64471" lon="1.37877">
        <ele>145</ele>
        <time>2023-06-23T16:38:33Z</time>
      </trkpt>
      <trkpt lat="43.64469" lon="1.3788">
        <ele>145</ele>
        <time>2023-06-23T16:38:34Z</time>
      </trkpt>
      <trkpt lat="43.64469" lon="1.3788">
        <ele>145</ele>
        <time>2023-06-23T16:38:35Z</time>
      </trkpt>
      <trkpt lat="43.64469" lon="1.3788">
        <ele>145</ele>
        <time>2023-06-23T16:38:36Z</time>
      </trkpt>
      <trkpt lat="43.64469" lon="1.3788">
        <ele>145</ele>
        <time>2023-06-23T16:38:37Z</time>
      </trkpt>
      <trkpt lat="43.64469" lon="1.3788">
        <ele>145</ele>
        <time>2023-06-23T16:38:38Z</time>
      </trkpt>
      <trkpt lat="43.64467" lon="1.37881">
        <ele>145</ele>
        <time>2023-06-23T16:38:39Z</time>
      </trkpt>
      <trkpt lat="43.64467" lon="1.37881">
        <ele>145</ele>
        <time>2023-06-23T16:38:40Z</time>
      </trkpt>
      <trkpt lat="43.64465" lon="1.37884">
        <ele>145</ele>
        <time>2023-06-23T16:38:41Z</time>
      </trkpt>
      <trkpt lat="43.64465" lon="1.37884">
        <ele>145</ele>
        <time>2023-06-23T16:38:42Z</time>
      </trkpt>
      <trkpt lat="43.64464" lon="1.37887">
        <ele>145</ele>
        <time>2023-06-23T16:38:43Z</time>
      </trkpt>
      <trkpt lat="43.64464" lon="1.37887">
        <ele>145</ele>
        <time>2023-06-23T16:38:44Z</time>
      </trkpt>
      <trkpt lat="43.64462" lon="1.3789">
        <ele>145</ele>
        <time>2023-06-23T16:38:45Z</time>
      </trkpt>
      <trkpt lat="43.64462" lon="1.3789">
        <ele>146</ele>
        <time>2023-06-23T16:38:46Z</time>
      </trkpt>
      <trkpt lat="43.64462" lon="1.3789">
        <ele>146</ele>
        <time>2023-06-23T16:38:47Z</time>
      </trkpt>
      <trkpt lat="43.64461" lon="1.37892">
        <ele>146</ele>
        <time>2023-06-23T16:38:48Z</time>
      </trkpt>
      <trkpt lat="43.64461" lon="1.37892">
        <ele>146</ele>
        <time>2023-06-23T16:38:49Z</time>
      </trkpt>
      <trkpt lat="43.64461" lon="1.37895">
        <ele>146</ele>
        <time>2023-06-23T16:38:50Z</time>
      </trkpt>
      <trkpt lat="43.64461" lon="1.37895">
        <ele>146</ele>
        <time>2023-06-23T16:38:51Z</time>
      </trkpt>
      <trkpt lat="43.6446" lon="1.37898">
        <ele>146</ele>
        <time>2023-06-23T16:38:52Z</time>
      </trkpt>
      <trkpt lat="43.6446" lon="1.37898">
        <ele>146</ele>
        <time>2023-06-23T16:38:53Z</time>
      </trkpt>
      <trkpt lat="43.64459" lon="1.37901">
        <ele>146</ele>
        <time>2023-06-23T16:38:54Z</time>
      </trkpt>
      <trkpt lat="43.64459" lon="1.37901">
        <ele>146</ele>
        <time>2023-06-23T16:38:55Z</time>
      </trkpt>
      <trkpt lat="43.64459" lon="1.37904">
        <ele>146</ele>
        <time>2023-06-23T16:38:56Z</time>
      </trkpt>
      <trkpt lat="43.64459" lon="1.37904">
        <ele>146</ele>
        <time>2023-06-23T16:38:57Z</time>
      </trkpt>
      <trkpt lat="43.64458" lon="1.37908">
        <ele>146</ele>
        <time>2023-06-23T16:38:58Z</time>
      </trkpt>
      <trkpt lat="43.64458" lon="1.37908">
        <ele>146</ele>
        <time>2023-06-23T16:38:59Z</time>
      </trkpt>
      <trkpt lat="43.64458" lon="1.37911">
        <ele>146</ele>
        <time>2023-06-23T16:39:00Z</time>
      </trkpt>
      <trkpt lat="43.64458" lon="1.37911">
        <ele>146</ele>
        <time>2023-06-23T16:39:01Z</time>
      </trkpt>
      <trkpt lat="43.64458" lon="1.37914">
        <ele>146</ele>
        <time>2023-06-23T16:39:02Z</time>
      </trkpt>
      <trkpt lat="43.64458" lon="1.37914">
        <ele>146</ele>
        <time>2023-06-23T16:39:03Z</time>
      </trkpt>
      <trkpt lat="43.64458" lon="1.37917">
        <ele>146</ele>
        <time>2023-06-23T16:39:04Z</time>
      </trkpt>
      <trkpt lat="43.64458" lon="1.37917">
        <ele>146</ele>
        <time>2023-06-23T16:39:05Z</time>
      </trkpt>
      <trkpt lat="43.64458" lon="1.37919">
        <ele>146</ele>
        <time>2023-06-23T16:39:06Z</time>
      </trkpt>
      <trkpt lat="43.64458" lon="1.37919">
        <ele>145</ele>
        <time>2023-06-23T16:39:07Z</time>
      </trkpt>
      <trkpt lat="43.64459" lon="1.37922">
        <ele>145</ele>
        <time>2023-06-23T16:39:08Z</time>
      </trkpt>
      <trkpt lat="43.64459" lon="1.37922">
        <ele>145</ele>
        <time>2023-06-23T16:39:09Z</time>
      </trkpt>
      <trkpt lat="43.64459" lon="1.37925">
        <ele>145</ele>
        <time>2023-06-23T16:39:10Z</time>
      </trkpt>
      <trkpt lat="43.64459" lon="1.37925">
        <ele>145</ele>
        <time>2023-06-23T16:39:11Z</time>
      </trkpt>
      <trkpt lat="43.64459" lon="1.37928">
        <ele>145</ele>
        <time>2023-06-23T16:39:12Z</time>
      </trkpt>
      <trkpt lat="43.64459" lon="1.37928">
        <ele>145</ele>
        <time>2023-06-23T16:39:13Z</time>
      </trkpt>
      <trkpt lat="43.6446" lon="1.37931">
        <ele>145</ele>
        <time>2023-06-23T16:39:14Z</time>
      </trkpt>
      <trkpt lat="43.6446" lon="1.37931">
        <ele>145</ele>
        <time>2023-06-23T16:39:15Z</time>
      </trkpt>
      <trkpt lat="43.64461" lon="1.37934">
        <ele>145</ele>
        <time>2023-06-23T16:39:16Z</time>
      </trkpt>
      <trkpt lat="43.64461" lon="1.37934">
        <ele>145</ele>
        <time>2023-06-23T16:39:17Z</time>
      </trkpt>
      <trkpt lat="43.64462" lon="1.37936">
        <ele>145</ele>
        <time>2023-06-23T16:39:18Z</time>
      </trkpt>
      <trkpt lat="43.64462" lon="1.37936">
        <ele>145</ele>
        <time>2023-06-23T16:39:19Z</time>
      </trkpt>
      <trkpt lat="43.64462" lon="1.37939">
        <ele>145</ele>
        <time>2023-06-23T16:39:20Z</time>
      </trkpt>
      <trkpt lat="43.64462" lon="1.37939">
        <ele>145</ele>
        <time>2023-06-23T16:39:21Z</time>
      </trkpt>
      <trkpt lat="43.6446" lon="1.37941">
        <ele>145</ele>
        <time>2023-06-23T16:39:22Z</time>
      </trkpt>
      <trkpt lat="43.6446" lon="1.37941">
        <ele>145</ele>
        <time>2023-06-23T16:39:23Z</time>
      </trkpt>
      <trkpt lat="43.64457" lon="1.3794">
        <ele>145</ele>
        <time>2023-06-23T16:39:24Z</time>
      </trkpt>
      <trkpt lat="43.64457" lon="1.3794">
        <ele>145</ele>
        <time>2023-06-23T16:39:25Z</time>
      </trkpt>
      <trkpt lat="43.64455" lon="1.37939">
        <ele>145</ele>
        <time>2023-06-23T16:39:26Z</time>
      </trkpt>
      <trkpt lat="43.64455" lon="1.37939">
        <ele>145</ele>
        <time>2023-06-23T16:39:27Z</time>
      </trkpt>
      <trkpt lat="43.64452" lon="1.37938">
        <ele>145</ele>
        <time>2023-06-23T16:39:28Z</time>
      </trkpt>
      <trkpt lat="43.64452" lon="1.37938">
        <ele>145</ele>
        <time>2023-06-23T16:39:29Z</time>
      </trkpt>
      <trkpt lat="43.6445" lon="1.37937">
        <ele>145</ele>
        <time>2023-06-23T16:39:30Z</time>
      </trkpt>
      <trkpt lat="43.6445" lon="1.37937">
        <ele>145</ele>
        <time>2023-06-23T16:39:31Z</time>
      </trkpt>
      <trkpt lat="43.64449" lon="1.37934">
        <ele>145</ele>
        <time>2023-06-23T16:39:32Z</time>
      </trkpt>
      <trkpt lat="43.64449" lon="1.37934">
        <ele>145</ele>
        <time>2023-06-23T16:39:33Z</time>
      </trkpt>
      <trkpt lat="43.64447" lon="1.37933">
        <ele>145</ele>
        <time>2023-06-23T16:39:34Z</time>
      </trkpt>
      <trkpt lat="43.64447" lon="1.37933">
        <ele>145</ele>
        <time>2023-06-23T16:39:35Z</time>
      </trkpt>
      <trkpt lat="43.64447" lon="1.37933">
        <ele>145</ele>
        <time>2023-06-23T16:39:36Z</time>
      </trkpt>
      <trkpt lat="43.64445" lon="1.37933">
        <ele>145</ele>
        <time>2023-06-23T16:39:37Z</time>
      </trkpt>
      <trkpt lat="43.64445" lon="1.37933">
        <ele>145</ele>
        <time>2023-06-23T16:39:38Z</time>
      </trkpt>
      <trkpt lat="43.64445" lon="1.37933">
        <ele>146</ele>
        <time>2023-06-23T16:39:39Z</time>
      </trkpt>
      <trkpt lat="43.64445" lon="1.37933">
        <ele>146</ele>
        <time>2023-06-23T16:39:40Z</time>
      </trkpt>
      <trkpt lat="43.64445" lon="1.37933">
        <ele>146</ele>
        <time>2023-06-23T16:39:41Z</time>
      </trkpt>
      <trkpt lat="43.64445" lon="1.37933">
        <ele>146</ele>
        <time>2023-06-23T16:39:42Z</time>
      </trkpt>
      <trkpt lat="43.64445" lon="1.37933">
        <ele>146</ele>
        <time>2023-06-23T16:39:43Z</time>
      </trkpt>
      <trkpt lat="43.64445" lon="1.37933">
        <ele>146</ele>
        <time>2023-06-23T16:39:44Z</time>
      </trkpt>
      <trkpt lat="43.64445" lon="1.37933">
        <ele>146</ele>
        <time>2023-06-23T16:39:45Z</time>
      </trkpt>
      <trkpt lat="43.64445" lon="1.37933">
        <ele>146</ele>
        <time>2023-06-23T16:39:46Z</time>
      </trkpt>
      <trkpt lat="43.64445" lon="1.37933">
        <ele>146</ele>
        <time>2023-06-23T16:39:47Z</time>
      </trkpt>
      <trkpt lat="43.64445" lon="1.37933">
        <ele>146</ele>
        <time>2023-06-23T16:39:48Z</time>
      </trkpt>
      <trkpt lat="43.64445" lon="1.37933">
        <ele>146</ele>
        <time>2023-06-23T16:39:49Z</time>
      </trkpt>
      <trkpt lat="43.64445" lon="1.37933">
        <ele>146</ele>
        <time>2023-06-23T16:39:50Z</time>
      </trkpt>
      <trkpt lat="43.64447" lon="1.37935">
        <ele>146</ele>
        <time>2023-06-23T16:39:51Z</time>
      </trkpt>
      <trkpt lat="43.64451" lon="1.37938">
        <ele>147</ele>
        <time>2023-06-23T16:39:52Z</time>
      </trkpt>
      <trkpt lat="43.64455" lon="1.37941">
        <ele>147</ele>
        <time>2023-06-23T16:39:53Z</time>
      </trkpt>
      <trkpt lat="43.64457" lon="1.37942">
        <ele>146</ele>
        <time>2023-06-23T16:39:54Z</time>
      </trkpt>
      <trkpt lat="43.64455" lon="1.37941">
        <ele>145</ele>
        <time>2023-06-23T16:39:55Z</time>
      </trkpt>
      <trkpt lat="43.64454" lon="1.3794">
        <ele>145</ele>
        <time>2023-06-23T16:39:56Z</time>
      </trkpt>
      <trkpt lat="43.64452" lon="1.37939">
        <ele>145</ele>
        <time>2023-06-23T16:39:57Z</time>
      </trkpt>
      <trkpt lat="43.64451" lon="1.37938">
        <ele>145</ele>
        <time>2023-06-23T16:39:58Z</time>
      </trkpt>
      <trkpt lat="43.64448" lon="1.37937">
        <ele>145</ele>
        <time>2023-06-23T16:39:59Z</time>
      </trkpt>
      <trkpt lat="43.64447" lon="1.37936">
        <ele>145</ele>
        <time>2023-06-23T16:40:00Z</time>
      </trkpt>
      <trkpt lat="43.64444" lon="1.37935">
        <ele>145</ele>
        <time>2023-06-23T16:40:01Z</time>
      </trkpt>
      <trkpt lat="43.64444" lon="1.37935">
        <ele>145</ele>
        <time>2023-06-23T16:40:02Z</time>
      </trkpt>
      <trkpt lat="43.64447" lon="1.37936">
        <ele>144</ele>
        <time>2023-06-23T16:40:03Z</time>
      </trkpt>
      <trkpt lat="43.64451" lon="1.37938">
        <ele>144</ele>
        <time>2023-06-23T16:40:04Z</time>
      </trkpt>
      <trkpt lat="43.64459" lon="1.37941">
        <ele>145</ele>
        <time>2023-06-23T16:40:05Z</time>
      </trkpt>
      <trkpt lat="43.64461" lon="1.37943">
        <ele>146</ele>
        <time>2023-06-23T16:40:06Z</time>
      </trkpt>
      <trkpt lat="43.64466" lon="1.37945">
        <ele>146</ele>
        <time>2023-06-23T16:40:07Z</time>
      </trkpt>
      <trkpt lat="43.64471" lon="1.37948">
        <ele>146</ele>
        <time>2023-06-23T16:40:08Z</time>
      </trkpt>
      <trkpt lat="43.64475" lon="1.37949">
        <ele>146</ele>
        <time>2023-06-23T16:40:09Z</time>
      </trkpt>
      <trkpt lat="43.64477" lon="1.3795">
        <ele>146</ele>
        <time>2023-06-23T16:40:10Z</time>
      </trkpt>
      <trkpt lat="43.64475" lon="1.3795">
        <ele>146</ele>
        <time>2023-06-23T16:40:11Z</time>
      </trkpt>
      <trkpt lat="43.64474" lon="1.37949">
        <ele>145</ele>
        <time>2023-06-23T16:40:12Z</time>
      </trkpt>
      <trkpt lat="43.64472" lon="1.37949">
        <ele>145</ele>
        <time>2023-06-23T16:40:13Z</time>
      </trkpt>
      <trkpt lat="43.6447" lon="1.37948">
        <ele>145</ele>
        <time>2023-06-23T16:40:14Z</time>
      </trkpt>
      <trkpt lat="43.64469" lon="1.37948">
        <ele>145</ele>
        <time>2023-06-23T16:40:15Z</time>
      </trkpt>
      <trkpt lat="43.64467" lon="1.37947">
        <ele>145</ele>
        <time>2023-06-23T16:40:16Z</time>
      </trkpt>
      <trkpt lat="43.64465" lon="1.37947">
        <ele>145</ele>
        <time>2023-06-23T16:40:17Z</time>
      </trkpt>
      <trkpt lat="43.64462" lon="1.37946">
        <ele>145</ele>
        <time>2023-06-23T16:40:18Z</time>
      </trkpt>
      <trkpt lat="43.64459" lon="1.37945">
        <ele>145</ele>
        <time>2023-06-23T16:40:19Z</time>
      </trkpt>
      <trkpt lat="43.64455" lon="1.37943">
        <ele>145</ele>
        <time>2023-06-23T16:40:20Z</time>
      </trkpt>
      <trkpt lat="43.64453" lon="1.37942">
        <ele>145</ele>
        <time>2023-06-23T16:40:21Z</time>
      </trkpt>
      <trkpt lat="43.64451" lon="1.37941">
        <ele>145</ele>
        <time>2023-06-23T16:40:22Z</time>
      </trkpt>
      <trkpt lat="43.64449" lon="1.37939">
        <ele>145</ele>
        <time>2023-06-23T16:40:23Z</time>
      </trkpt>
      <trkpt lat="43.64447" lon="1.37938">
        <ele>146</ele>
        <time>2023-06-23T16:40:24Z</time>
      </trkpt>
      <trkpt lat="43.64445" lon="1.37937">
        <ele>146</ele>
        <time>2023-06-23T16:40:25Z</time>
      </trkpt>
      <trkpt lat="43.64443" lon="1.37936">
        <ele>146</ele>
        <time>2023-06-23T16:40:26Z</time>
      </trkpt>
      <trkpt lat="43.64443" lon="1.37936">
        <ele>145</ele>
        <time>2023-06-23T16:40:27Z</time>
      </trkpt>
      <trkpt lat="43.64447" lon="1.37938">
        <ele>144</ele>
        <time>2023-06-23T16:40:28Z</time>
      </trkpt>
      <trkpt lat="43.64451" lon="1.3794">
        <ele>145</ele>
        <time>2023-06-23T16:40:29Z</time>
      </trkpt>
      <trkpt lat="43.64455" lon="1.37943">
        <ele>145</ele>
        <time>2023-06-23T16:40:30Z</time>
      </trkpt>
      <trkpt lat="43.64461" lon="1.37945">
        <ele>145</ele>
        <time>2023-06-23T16:40:31Z</time>
      </trkpt>
      <trkpt lat="43.64465" lon="1.37947">
        <ele>146</ele>
        <time>2023-06-23T16:40:32Z</time>
      </trkpt>
      <trkpt lat="43.64472" lon="1.37951">
        <ele>146</ele>
        <time>2023-06-23T16:40:33Z</time>
      </trkpt>
      <trkpt lat="43.64475" lon="1.37952">
        <ele>146</ele>
        <time>2023-06-23T16:40:34Z</time>
      </trkpt>
      <trkpt lat="43.64479" lon="1.37954">
        <ele>146</ele>
        <time>2023-06-23T16:40:35Z</time>
      </trkpt>
      <trkpt lat="43.64482" lon="1.37955">
        <ele>146</ele>
        <time>2023-06-23T16:40:36Z</time>
      </trkpt>
      <trkpt lat="43.64484" lon="1.37954">
        <ele>146</ele>
        <time>2023-06-23T16:40:37Z</time>
      </trkpt>
      <trkpt lat="43.64484" lon="1.37954">
        <ele>146</ele>
        <time>2023-06-23T16:40:38Z</time>
      </trkpt>
      <trkpt lat="43.64484" lon="1.37954">
        <ele>146</ele>
        <time>2023-06-23T16:40:39Z</time>
      </trkpt>
      <trkpt lat="43.64484" lon="1.37954">
        <ele>146</ele>
        <time>2023-06-23T16:40:40Z</time>
      </trkpt>
      <trkpt lat="43.64482" lon="1.37953">
        <ele>146</ele>
        <time>2023-06-23T16:40:41Z</time>
      </trkpt>
      <trkpt lat="43.64482" lon="1.37953">
        <ele>146</ele>
        <time>2023-06-23T16:40:42Z</time>
      </trkpt>
      <trkpt lat="43.6448" lon="1.37953">
        <ele>146</ele>
        <time>2023-06-23T16:40:43Z</time>
      </trkpt>
      <trkpt lat="43.6448" lon="1.37953">
        <ele>146</ele>
        <time>2023-06-23T16:40:44Z</time>
      </trkpt>
      <trkpt lat="43.64477" lon="1.37952">
        <ele>146</ele>
        <time>2023-06-23T16:40:45Z</time>
      </trkpt>
      <trkpt lat="43.64477" lon="1.37952">
        <ele>146</ele>
        <time>2023-06-23T16:40:46Z</time>
      </trkpt>
      <trkpt lat="43.64474" lon="1.37951">
        <ele>146</ele>
        <time>2023-06-23T16:40:47Z</time>
      </trkpt>
      <trkpt lat="43.64474" lon="1.37951">
        <ele>146</ele>
        <time>2023-06-23T16:40:48Z</time>
      </trkpt>
      <trkpt lat="43.64472" lon="1.37951">
        <ele>146</ele>
        <time>2023-06-23T16:40:49Z</time>
      </trkpt>
      <trkpt lat="43.64472" lon="1.37951">
        <ele>146</ele>
        <time>2023-06-23T16:40:50Z</time>
      </trkpt>
      <trkpt lat="43.6447" lon="1.37949">
        <ele>146</ele>
        <time>2023-06-23T16:40:51Z</time>
      </trkpt>
      <trkpt lat="43.6447" lon="1.37949">
        <ele>146</ele>
        <time>2023-06-23T16:40:52Z</time>
      </trkpt>
      <trkpt lat="43.64467" lon="1.37949">
        <ele>145</ele>
        <time>2023-06-23T16:40:53Z</time>
      </trkpt>
      <trkpt lat="43.64467" lon="1.37949">
        <ele>145</ele>
        <time>2023-06-23T16:40:54Z</time>
      </trkpt>
      <trkpt lat="43.64465" lon="1.37947">
        <ele>145</ele>
        <time>2023-06-23T16:40:55Z</time>
      </trkpt>
      <trkpt lat="43.64465" lon="1.37947">
        <ele>145</ele>
        <time>2023-06-23T16:40:56Z</time>
      </trkpt>
      <trkpt lat="43.64464" lon="1.37946">
        <ele>145</ele>
        <time>2023-06-23T16:40:57Z</time>
      </trkpt>
      <trkpt lat="43.64464" lon="1.37946">
        <ele>145</ele>
        <time>2023-06-23T16:40:58Z</time>
      </trkpt>
      <trkpt lat="43.64462" lon="1.37944">
        <ele>145</ele>
        <time>2023-06-23T16:40:59Z</time>
      </trkpt>
      <trkpt lat="43.64462" lon="1.37944">
        <ele>145</ele>
        <time>2023-06-23T16:41:00Z</time>
      </trkpt>
      <trkpt lat="43.64459" lon="1.37944">
        <ele>145</ele>
        <time>2023-06-23T16:41:01Z</time>
      </trkpt>
      <trkpt lat="43.64459" lon="1.37944">
        <ele>145</ele>
        <time>2023-06-23T16:41:02Z</time>
      </trkpt>
      <trkpt lat="43.64457" lon="1.37944">
        <ele>145</ele>
        <time>2023-06-23T16:41:03Z</time>
      </trkpt>
      <trkpt lat="43.64457" lon="1.37944">
        <ele>145</ele>
        <time>2023-06-23T16:41:04Z</time>
      </trkpt>
      <trkpt lat="43.64455" lon="1.37943">
        <ele>145</ele>
        <time>2023-06-23T16:41:05Z</time>
      </trkpt>
      <trkpt lat="43.64455" lon="1.37943">
        <ele>145</ele>
        <time>2023-06-23T16:41:06Z</time>
      </trkpt>
      <trkpt lat="43.64452" lon="1.37941">
        <ele>145</ele>
        <time>2023-06-23T16:41:07Z</time>
      </trkpt>
      <trkpt lat="43.64452" lon="1.37941">
        <ele>145</ele>
        <time>2023-06-23T16:41:08Z</time>
      </trkpt>
      <trkpt lat="43.64451" lon="1.37939">
        <ele>145</ele>
        <time>2023-06-23T16:41:09Z</time>
      </trkpt>
      <trkpt lat="43.64451" lon="1.37939">
        <ele>145</ele>
        <time>2023-06-23T16:41:10Z</time>
      </trkpt>
      <trkpt lat="43.64448" lon="1.37937">
        <ele>145</ele>
        <time>2023-06-23T16:41:11Z</time>
      </trkpt>
      <trkpt lat="43.64448" lon="1.37937">
        <ele>145</ele>
        <time>2023-06-23T16:41:12Z</time>
      </trkpt>
      <trkpt lat="43.64446" lon="1.37936">
        <ele>145</ele>
        <time>2023-06-23T16:41:13Z</time>
      </trkpt>
      <trkpt lat="43.64446" lon="1.37936">
        <ele>145</ele>
        <time>2023-06-23T16:41:14Z</time>
      </trkpt>
      <trkpt lat="43.64444" lon="1.37934">
        <ele>145</ele>
        <time>2023-06-23T16:41:15Z</time>
      </trkpt>
      <trkpt lat="43.64444" lon="1.37934">
        <ele>145</ele>
        <time>2023-06-23T16:41:16Z</time>
      </trkpt>
      <trkpt lat="43.64444" lon="1.37934">
        <ele>145</ele>
        <time>2023-06-23T16:41:17Z</time>
      </trkpt>
      <trkpt lat="43.64444" lon="1.37934">
        <ele>145</ele>
        <time>2023-06-23T16:41:18Z</time>
      </trkpt>
      <trkpt lat="43.64447" lon="1.37934">
        <ele>145</ele>
        <time>2023-06-23T16:41:19Z</time>
      </trkpt>
      <trkpt lat="43.64451" lon="1.37937">
        <ele>145</ele>
        <time>2023-06-23T16:41:20Z</time>
      </trkpt>
      <trkpt lat="43.64455" lon="1.37938">
        <ele>145</ele>
        <time>2023-06-23T16:41:21Z</time>
      </trkpt>
      <trkpt lat="43.64454" lon="1.37938">
        <ele>146</ele>
        <time>2023-06-23T16:41:22Z</time>
      </trkpt>
      <trkpt lat="43.64453" lon="1.37938">
        <ele>146</ele>
        <time>2023-06-23T16:41:23Z</time>
      </trkpt>
      <trkpt lat="43.64452" lon="1.37937">
        <ele>146</ele>
        <time>2023-06-23T16:41:24Z</time>
      </trkpt>
      <trkpt lat="43.64451" lon="1.37937">
        <ele>146</ele>
        <time>2023-06-23T16:41:25Z</time>
      </trkpt>
      <trkpt lat="43.6445" lon="1.37937">
        <ele>146</ele>
        <time>2023-06-23T16:41:26Z</time>
      </trkpt>
      <trkpt lat="43.64446" lon="1.37936">
        <ele>146</ele>
        <time>2023-06-23T16:41:27Z</time>
      </trkpt>
      <trkpt lat="43.64446" lon="1.37936">
        <ele>146</ele>
        <time>2023-06-23T16:41:28Z</time>
      </trkpt>
      <trkpt lat="43.64446" lon="1.37936">
        <ele>146</ele>
        <time>2023-06-23T16:41:29Z</time>
      </trkpt>
      <trkpt lat="43.64444" lon="1.37935">
        <ele>146</ele>
        <time>2023-06-23T16:41:30Z</time>
      </trkpt>
      <trkpt lat="43.64446" lon="1.37936">
        <ele>146</ele>
        <time>2023-06-23T16:41:31Z</time>
      </trkpt>
      <trkpt lat="43.64449" lon="1.37938">
        <ele>145</ele>
        <time>2023-06-23T16:41:32Z</time>
      </trkpt>
      <trkpt lat="43.64453" lon="1.3794">
        <ele>145</ele>
        <time>2023-06-23T16:41:33Z</time>
      </trkpt>
      <trkpt lat="43.64458" lon="1.37943">
        <ele>145</ele>
        <time>2023-06-23T16:41:34Z</time>
      </trkpt>
      <trkpt lat="43.64465" lon="1.37948">
        <ele>145</ele>
        <time>2023-06-23T16:41:35Z</time>
      </trkpt>
      <trkpt lat="43.64468" lon="1.37949">
        <ele>145</ele>
        <time>2023-06-23T16:41:36Z</time>
      </trkpt>
      <trkpt lat="43.64472" lon="1.37951">
        <ele>146</ele>
        <time>2023-06-23T16:41:37Z</time>
      </trkpt>
      <trkpt lat="43.64474" lon="1.37951">
        <ele>147</ele>
        <time>2023-06-23T16:41:38Z</time>
      </trkpt>
      <trkpt lat="43.64474" lon="1.37951">
        <ele>147</ele>
        <time>2023-06-23T16:41:39Z</time>
      </trkpt>
      <trkpt lat="43.64474" lon="1.37951">
        <ele>146</ele>
        <time>2023-06-23T16:41:40Z</time>
      </trkpt>
      <trkpt lat="43.64474" lon="1.37951">
        <ele>146</ele>
        <time>2023-06-23T16:41:41Z</time>
      </trkpt>
      <trkpt lat="43.64472" lon="1.3795">
        <ele>146</ele>
        <time>2023-06-23T16:41:42Z</time>
      </trkpt>
      <trkpt lat="43.64469" lon="1.37949">
        <ele>146</ele>
        <time>2023-06-23T16:41:43Z</time>
      </trkpt>
      <trkpt lat="43.64466" lon="1.37948">
        <ele>146</ele>
        <time>2023-06-23T16:41:44Z</time>
      </trkpt>
      <trkpt lat="43.64464" lon="1.37947">
        <ele>146</ele>
        <time>2023-06-23T16:41:45Z</time>
      </trkpt>
      <trkpt lat="43.64461" lon="1.37946">
        <ele>145</ele>
        <time>2023-06-23T16:41:46Z</time>
      </trkpt>
      <trkpt lat="43.64461" lon="1.37946">
        <ele>145</ele>
        <time>2023-06-23T16:41:47Z</time>
      </trkpt>
      <trkpt lat="43.64459" lon="1.37946">
        <ele>145</ele>
        <time>2023-06-23T16:41:48Z</time>
      </trkpt>
      <trkpt lat="43.64457" lon="1.37945">
        <ele>145</ele>
        <time>2023-06-23T16:41:49Z</time>
      </trkpt>
      <trkpt lat="43.64454" lon="1.37944">
        <ele>145</ele>
        <time>2023-06-23T16:41:50Z</time>
      </trkpt>
      <trkpt lat="43.64453" lon="1.37943">
        <ele>145</ele>
        <time>2023-06-23T16:41:51Z</time>
      </trkpt>
      <trkpt lat="43.64451" lon="1.37941">
        <ele>145</ele>
        <time>2023-06-23T16:41:52Z</time>
      </trkpt>
      <trkpt lat="43.64449" lon="1.3794">
        <ele>145</ele>
        <time>2023-06-23T16:41:53Z</time>
      </trkpt>
      <trkpt lat="43.64447" lon="1.37939">
        <ele>145</ele>
        <time>2023-06-23T16:41:54Z</time>
      </trkpt>
      <trkpt lat="43.64445" lon="1.37938">
        <ele>146</ele>
        <time>2023-06-23T16:41:55Z</time>
      </trkpt>
      <trkpt lat="43.64444" lon="1.37937">
        <ele>146</ele>
        <time>2023-06-23T16:41:56Z</time>
      </trkpt>
      <trkpt lat="43.64447" lon="1.37938">
        <ele>146</ele>
        <time>2023-06-23T16:41:57Z</time>
      </trkpt>
      <trkpt lat="43.64449" lon="1.37939">
        <ele>146</ele>
        <time>2023-06-23T16:41:58Z</time>
      </trkpt>
      <trkpt lat="43.64452" lon="1.3794">
        <ele>145</ele>
        <time>2023-06-23T16:41:59Z</time>
      </trkpt>
      <trkpt lat="43.6446" lon="1.37944">
        <ele>145</ele>
        <time>2023-06-23T16:42:00Z</time>
      </trkpt>
      <trkpt lat="43.64462" lon="1.37945">
        <ele>145</ele>
        <time>2023-06-23T16:42:01Z</time>
      </trkpt>
      <trkpt lat="43.64469" lon="1.37948">
        <ele>145</ele>
        <time>2023-06-23T16:42:02Z</time>
      </trkpt>
      <trkpt lat="43.64471" lon="1.3795">
        <ele>145</ele>
        <time>2023-06-23T16:42:03Z</time>
      </trkpt>
      <trkpt lat="43.64476" lon="1.37952">
        <ele>146</ele>
        <time>2023-06-23T16:42:04Z</time>
      </trkpt>
      <trkpt lat="43.64485" lon="1.37955">
        <ele>146</ele>
        <time>2023-06-23T16:42:05Z</time>
      </trkpt>
      <trkpt lat="43.64485" lon="1.37955">
        <ele>146</ele>
        <time>2023-06-23T16:42:06Z</time>
      </trkpt>
      <trkpt lat="43.64487" lon="1.37955">
        <ele>146</ele>
        <time>2023-06-23T16:42:07Z</time>
      </trkpt>
      <trkpt lat="43.64487" lon="1.37955">
        <ele>145</ele>
        <time>2023-06-23T16:42:08Z</time>
      </trkpt>
      <trkpt lat="43.64487" lon="1.37955">
        <ele>145</ele>
        <time>2023-06-23T16:42:09Z</time>
      </trkpt>
      <trkpt lat="43.64487" lon="1.37955">
        <ele>145</ele>
        <time>2023-06-23T16:42:10Z</time>
      </trkpt>
      <trkpt lat="43.64485" lon="1.37956">
        <ele>145</ele>
        <time>2023-06-23T16:42:11Z</time>
      </trkpt>
      <trkpt lat="43.64485" lon="1.37956">
        <ele>145</ele>
        <time>2023-06-23T16:42:12Z</time>
      </trkpt>
      <trkpt lat="43.64482" lon="1.37956">
        <ele>145</ele>
        <time>2023-06-23T16:42:13Z</time>
      </trkpt>
      <trkpt lat="43.64482" lon="1.37956">
        <ele>145</ele>
        <time>2023-06-23T16:42:14Z</time>
      </trkpt>
      <trkpt lat="43.64482" lon="1.37956">
        <ele>145</ele>
        <time>2023-06-23T16:42:15Z</time>
      </trkpt>
      <trkpt lat="43.64479" lon="1.37956">
        <ele>145</ele>
        <time>2023-06-23T16:42:16Z</time>
      </trkpt>
      <trkpt lat="43.64479" lon="1.37956">
        <ele>145</ele>
        <time>2023-06-23T16:42:17Z</time>
      </trkpt>
      <trkpt lat="43.64477" lon="1.37955">
        <ele>145</ele>
        <time>2023-06-23T16:42:18Z</time>
      </trkpt>
      <trkpt lat="43.64477" lon="1.37955">
        <ele>145</ele>
        <time>2023-06-23T16:42:19Z</time>
      </trkpt>
      <trkpt lat="43.64474" lon="1.37953">
        <ele>145</ele>
        <time>2023-06-23T16:42:20Z</time>
      </trkpt>
      <trkpt lat="43.64474" lon="1.37953">
        <ele>145</ele>
        <time>2023-06-23T16:42:21Z</time>
      </trkpt>
      <trkpt lat="43.64473" lon="1.37951">
        <ele>145</ele>
        <time>2023-06-23T16:42:22Z</time>
      </trkpt>
      <trkpt lat="43.64473" lon="1.37951">
        <ele>145</ele>
        <time>2023-06-23T16:42:23Z</time>
      </trkpt>
      <trkpt lat="43.64471" lon="1.37949">
        <ele>145</ele>
        <time>2023-06-23T16:42:24Z</time>
      </trkpt>
      <trkpt lat="43.64471" lon="1.37949">
        <ele>145</ele>
        <time>2023-06-23T16:42:25Z</time>
      </trkpt>
      <trkpt lat="43.64468" lon="1.37948">
        <ele>145</ele>
        <time>2023-06-23T16:42:26Z</time>
      </trkpt>
      <trkpt lat="43.64468" lon="1.37948">
        <ele>145</ele>
        <time>2023-06-23T16:42:27Z</time>
      </trkpt>
      <trkpt lat="43.64466" lon="1.37947">
        <ele>145</ele>
        <time>2023-06-23T16:42:28Z</time>
      </trkpt>
      <trkpt lat="43.64466" lon="1.37947">
        <ele>145</ele>
        <time>2023-06-23T16:42:29Z</time>
      </trkpt>
      <trkpt lat="43.64463" lon="1.37946">
        <ele>146</ele>
        <time>2023-06-23T16:42:30Z</time>
      </trkpt>
      <trkpt lat="43.64463" lon="1.37946">
        <ele>146</ele>
        <time>2023-06-23T16:42:31Z</time>
      </trkpt>
      <trkpt lat="43.64461" lon="1.37945">
        <ele>146</ele>
        <time>2023-06-23T16:42:32Z</time>
      </trkpt>
      <trkpt lat="43.64461" lon="1.37945">
        <ele>146</ele>
        <time>2023-06-23T16:42:33Z</time>
      </trkpt>
      <trkpt lat="43.64458" lon="1.37943">
        <ele>146</ele>
        <time>2023-06-23T16:42:34Z</time>
      </trkpt>
      <trkpt lat="43.64458" lon="1.37943">
        <ele>146</ele>
        <time>2023-06-23T16:42:35Z</time>
      </trkpt>
      <trkpt lat="43.64456" lon="1.37942">
        <ele>146</ele>
        <time>2023-06-23T16:42:36Z</time>
      </trkpt>
      <trkpt lat="43.64456" lon="1.37942">
        <ele>146</ele>
        <time>2023-06-23T16:42:37Z</time>
      </trkpt>
      <trkpt lat="43.64455" lon="1.37941">
        <ele>146</ele>
        <time>2023-06-23T16:42:38Z</time>
      </trkpt>
      <trkpt lat="43.64455" lon="1.37941">
        <ele>146</ele>
        <time>2023-06-23T16:42:39Z</time>
      </trkpt>
      <trkpt lat="43.64453" lon="1.37939">
        <ele>146</ele>
        <time>2023-06-23T16:42:40Z</time>
      </trkpt>
      <trkpt lat="43.64453" lon="1.37939">
        <ele>146</ele>
        <time>2023-06-23T16:42:41Z</time>
      </trkpt>
      <trkpt lat="43.64451" lon="1.37937">
        <ele>146</ele>
        <time>2023-06-23T16:42:42Z</time>
      </trkpt>
      <trkpt lat="43.64451" lon="1.37937">
        <ele>146</ele>
        <time>2023-06-23T16:42:43Z</time>
      </trkpt>
      <trkpt lat="43.64449" lon="1.37935">
        <ele>146</ele>
        <time>2023-06-23T16:42:44Z</time>
      </trkpt>
      <trkpt lat="43.64449" lon="1.37935">
        <ele>146</ele>
        <time>2023-06-23T16:42:45Z</time>
      </trkpt>
      <trkpt lat="43.64447" lon="1.37934">
        <ele>146</ele>
        <time>2023-06-23T16:42:46Z</time>
      </trkpt>
      <trkpt lat="43.64448" lon="1.37935">
        <ele>146</ele>
        <time>2023-06-23T16:42:47Z</time>
      </trkpt>
      <trkpt lat="43.64449" lon="1.37935">
        <ele>145</ele>
        <time>2023-06-23T16:42:48Z</time>
      </trkpt>
      <trkpt lat="43.6445" lon="1.37935">
        <ele>145</ele>
        <time>2023-06-23T16:42:49Z</time>
      </trkpt>
      <trkpt lat="43.64451" lon="1.37936">
        <ele>145</ele>
        <time>2023-06-23T16:42:50Z</time>
      </trkpt>
      <trkpt lat="43.64452" lon="1.37936">
        <ele>145</ele>
        <time>2023-06-23T16:42:51Z</time>
      </trkpt>
      <trkpt lat="43.64455" lon="1.37939">
        <ele>145</ele>
        <time>2023-06-23T16:42:52Z</time>
      </trkpt>
      <trkpt lat="43.64457" lon="1.3794">
        <ele>145</ele>
        <time>2023-06-23T16:42:53Z</time>
      </trkpt>
      <trkpt lat="43.64457" lon="1.3794">
        <ele>145</ele>
        <time>2023-06-23T16:42:54Z</time>
      </trkpt>
      <trkpt lat="43.64455" lon="1.37939">
        <ele>145</ele>
        <time>2023-06-23T16:42:55Z</time>
      </trkpt>
      <trkpt lat="43.64453" lon="1.37938">
        <ele>145</ele>
        <time>2023-06-23T16:42:56Z</time>
      </trkpt>
      <trkpt lat="43.64453" lon="1.37938">
        <ele>146</ele>
        <time>2023-06-23T16:42:57Z</time>
      </trkpt>
      <trkpt lat="43.64448" lon="1.37937">
        <ele>146</ele>
        <time>2023-06-23T16:42:58Z</time>
      </trkpt>
      <trkpt lat="43.64447" lon="1.37937">
        <ele>146</ele>
        <time>2023-06-23T16:42:59Z</time>
      </trkpt>
      <trkpt lat="43.64447" lon="1.37937">
        <ele>146</ele>
        <time>2023-06-23T16:43:00Z</time>
      </trkpt>
      <trkpt lat="43.64444" lon="1.37936">
        <ele>146</ele>
        <time>2023-06-23T16:43:01Z</time>
      </trkpt>
      <trkpt lat="43.64447" lon="1.37937">
        <ele>146</ele>
        <time>2023-06-23T16:43:02Z</time>
      </trkpt>
      <trkpt lat="43.6445" lon="1.37938">
        <ele>145</ele>
        <time>2023-06-23T16:43:03Z</time>
      </trkpt>
      <trkpt lat="43.64452" lon="1.37939">
        <ele>145</ele>
        <time>2023-06-23T16:43:04Z</time>
      </trkpt>
      <trkpt lat="43.64459" lon="1.37943">
        <ele>145</ele>
        <time>2023-06-23T16:43:05Z</time>
      </trkpt>
      <trkpt lat="43.64462" lon="1.37944">
        <ele>145</ele>
        <time>2023-06-23T16:43:06Z</time>
      </trkpt>
      <trkpt lat="43.64466" lon="1.37947">
        <ele>145</ele>
        <time>2023-06-23T16:43:07Z</time>
      </trkpt>
      <trkpt lat="43.6447" lon="1.37948">
        <ele>145</ele>
        <time>2023-06-23T16:43:08Z</time>
      </trkpt>
      <trkpt lat="43.64473" lon="1.37948">
        <ele>146</ele>
        <time>2023-06-23T16:43:09Z</time>
      </trkpt>
      <trkpt lat="43.64471" lon="1.37948">
        <ele>146</ele>
        <time>2023-06-23T16:43:10Z</time>
      </trkpt>
      <trkpt lat="43.6447" lon="1.37948">
        <ele>145</ele>
        <time>2023-06-23T16:43:11Z</time>
      </trkpt>
      <trkpt lat="43.64468" lon="1.37947">
        <ele>145</ele>
        <time>2023-06-23T16:43:12Z</time>
      </trkpt>
      <trkpt lat="43.64467" lon="1.37947">
        <ele>145</ele>
        <time>2023-06-23T16:43:13Z</time>
      </trkpt>
      <trkpt lat="43.64465" lon="1.37947">
        <ele>145</ele>
        <time>2023-06-23T16:43:14Z</time>
      </trkpt>
      <trkpt lat="43.64463" lon="1.37947">
        <ele>145</ele>
        <time>2023-06-23T16:43:15Z</time>
      </trkpt>
      <trkpt lat="43.64462" lon="1.37946">
        <ele>146</ele>
        <time>2023-06-23T16:43:16Z</time>
      </trkpt>
      <trkpt lat="43.6446" lon="1.37946">
        <ele>146</ele>
        <time>2023-06-23T16:43:17Z</time>
      </trkpt>
      <trkpt lat="43.64457" lon="1.37945">
        <ele>146</ele>
        <time>2023-06-23T16:43:18Z</time>
      </trkpt>
      <trkpt lat="43.64456" lon="1.37945">
        <ele>146</ele>
        <time>2023-06-23T16:43:19Z</time>
      </trkpt>
      <trkpt lat="43.64454" lon="1.37944">
        <ele>146</ele>
        <time>2023-06-23T16:43:20Z</time>
      </trkpt>
      <trkpt lat="43.6445" lon="1.37941">
        <ele>146</ele>
        <time>2023-06-23T16:43:21Z</time>
      </trkpt>
      <trkpt lat="43.6445" lon="1.37941">
        <ele>146</ele>
        <time>2023-06-23T16:43:22Z</time>
      </trkpt>
      <trkpt lat="43.64448" lon="1.37939">
        <ele>146</ele>
        <time>2023-06-23T16:43:23Z</time>
      </trkpt>
      <trkpt lat="43.64446" lon="1.37938">
        <ele>145</ele>
        <time>2023-06-23T16:43:24Z</time>
      </trkpt>
      <trkpt lat="43.64446" lon="1.37938">
        <ele>145</ele>
        <time>2023-06-23T16:43:25Z</time>
      </trkpt>
      <trkpt lat="43.64446" lon="1.37938">
        <ele>145</ele>
        <time>2023-06-23T16:43:26Z</time>
      </trkpt>
      <trkpt lat="43.64448" lon="1.37938">
        <ele>145</ele>
        <time>2023-06-23T16:43:27Z</time>
      </trkpt>
      <trkpt lat="43.64452" lon="1.3794">
        <ele>145</ele>
        <time>2023-06-23T16:43:28Z</time>
      </trkpt>
      <trkpt lat="43.64456" lon="1.37942">
        <ele>145</ele>
        <time>2023-06-23T16:43:29Z</time>
      </trkpt>
      <trkpt lat="43.64461" lon="1.37945">
        <ele>145</ele>
        <time>2023-06-23T16:43:30Z</time>
      </trkpt>
      <trkpt lat="43.64465" lon="1.37947">
        <ele>145</ele>
        <time>2023-06-23T16:43:31Z</time>
      </trkpt>
      <trkpt lat="43.64472" lon="1.37951">
        <ele>145</ele>
        <time>2023-06-23T16:43:32Z</time>
      </trkpt>
      <trkpt lat="43.64474" lon="1.37952">
        <ele>145</ele>
        <time>2023-06-23T16:43:33Z</time>
      </trkpt>
      <trkpt lat="43.64481" lon="1.37955">
        <ele>145</ele>
        <time>2023-06-23T16:43:34Z</time>
      </trkpt>
      <trkpt lat="43.64484" lon="1.37956">
        <ele>145</ele>
        <time>2023-06-23T16:43:35Z</time>
      </trkpt>
      <trkpt lat="43.64487" lon="1.37957">
        <ele>146</ele>
        <time>2023-06-23T16:43:36Z</time>
      </trkpt>
      <trkpt lat="43.6449" lon="1.37958">
        <ele>146</ele>
        <time>2023-06-23T16:43:37Z</time>
      </trkpt>
      <trkpt lat="43.6449" lon="1.37958">
        <ele>145</ele>
        <time>2023-06-23T16:43:38Z</time>
      </trkpt>
      <trkpt lat="43.64492" lon="1.37958">
        <ele>145</ele>
        <time>2023-06-23T16:43:39Z</time>
      </trkpt>
      <trkpt lat="43.64495" lon="1.37959">
        <ele>145</ele>
        <time>2023-06-23T16:43:40Z</time>
      </trkpt>
      <trkpt lat="43.64495" lon="1.37959">
        <ele>146</ele>
        <time>2023-06-23T16:43:41Z</time>
      </trkpt>
      <trkpt lat="43.64495" lon="1.37959">
        <ele>146</ele>
        <time>2023-06-23T16:43:42Z</time>
      </trkpt>
      <trkpt lat="43.64498" lon="1.37962">
        <ele>146</ele>
        <time>2023-06-23T16:43:43Z</time>
      </trkpt>
      <trkpt lat="43.64498" lon="1.37962">
        <ele>146</ele>
        <time>2023-06-23T16:43:44Z</time>
      </trkpt>
      <trkpt lat="43.64499" lon="1.37964">
        <ele>146</ele>
        <time>2023-06-23T16:43:45Z</time>
      </trkpt>
      <trkpt lat="43.64499" lon="1.37964">
        <ele>146</ele>
        <time>2023-06-23T16:43:46Z</time>
      </trkpt>
      <trkpt lat="43.64501" lon="1.37966">
        <ele>146</ele>
        <time>2023-06-23T16:43:47Z</time>
      </trkpt>
      <trkpt lat="43.64501" lon="1.37966">
        <ele>146</ele>
        <time>2023-06-23T16:43:48Z</time>
      </trkpt>
      <trkpt lat="43.64503" lon="1.37967">
        <ele>146</ele>
        <time>2023-06-23T16:43:49Z</time>
      </trkpt>
      <trkpt lat="43.64503" lon="1.37967">
        <ele>146</ele>
        <time>2023-06-23T16:43:50Z</time>
      </trkpt>
      <trkpt lat="43.64505" lon="1.37968">
        <ele>146</ele>
        <time>2023-06-23T16:43:51Z</time>
      </trkpt>
      <trkpt lat="43.64505" lon="1.37968">
        <ele>146</ele>
        <time>2023-06-23T16:43:52Z</time>
      </trkpt>
      <trkpt lat="43.64507" lon="1.3797">
        <ele>146</ele>
        <time>2023-06-23T16:43:53Z</time>
      </trkpt>
      <trkpt lat="43.64507" lon="1.3797">
        <ele>146</ele>
        <time>2023-06-23T16:43:54Z</time>
      </trkpt>
      <trkpt lat="43.64508" lon="1.37971">
        <ele>146</ele>
        <time>2023-06-23T16:43:55Z</time>
      </trkpt>
      <trkpt lat="43.64508" lon="1.37971">
        <ele>146</ele>
        <time>2023-06-23T16:43:56Z</time>
      </trkpt>
      <trkpt lat="43.6451" lon="1.37973">
        <ele>146</ele>
        <time>2023-06-23T16:43:57Z</time>
      </trkpt>
      <trkpt lat="43.6451" lon="1.37973">
        <ele>146</ele>
        <time>2023-06-23T16:43:58Z</time>
      </trkpt>
      <trkpt lat="43.64512" lon="1.37974">
        <ele>146</ele>
        <time>2023-06-23T16:43:59Z</time>
      </trkpt>
      <trkpt lat="43.64512" lon="1.37974">
        <ele>146</ele>
        <time>2023-06-23T16:44:00Z</time>
      </trkpt>
      <trkpt lat="43.64514" lon="1.37976">
        <ele>146</ele>
        <time>2023-06-23T16:44:01Z</time>
      </trkpt>
      <trkpt lat="43.64514" lon="1.37976">
        <ele>146</ele>
        <time>2023-06-23T16:44:02Z</time>
      </trkpt>
      <trkpt lat="43.64516" lon="1.37976">
        <ele>146</ele>
        <time>2023-06-23T16:44:03Z</time>
      </trkpt>
      <trkpt lat="43.64516" lon="1.37976">
        <ele>145</ele>
        <time>2023-06-23T16:44:04Z</time>
      </trkpt>
      <trkpt lat="43.64518" lon="1.37977">
        <ele>145</ele>
        <time>2023-06-23T16:44:05Z</time>
      </trkpt>
      <trkpt lat="43.64518" lon="1.37977">
        <ele>145</ele>
        <time>2023-06-23T16:44:06Z</time>
      </trkpt>
      <trkpt lat="43.6452" lon="1.37979">
        <ele>145</ele>
        <time>2023-06-23T16:44:07Z</time>
      </trkpt>
      <trkpt lat="43.6452" lon="1.37979">
        <ele>145</ele>
        <time>2023-06-23T16:44:08Z</time>
      </trkpt>
      <trkpt lat="43.64522" lon="1.3798">
        <ele>145</ele>
        <time>2023-06-23T16:44:09Z</time>
      </trkpt>
      <trkpt lat="43.64522" lon="1.3798">
        <ele>145</ele>
        <time>2023-06-23T16:44:10Z</time>
      </trkpt>
      <trkpt lat="43.64524" lon="1.37981">
        <ele>145</ele>
        <time>2023-06-23T16:44:11Z</time>
      </trkpt>
      <trkpt lat="43.64524" lon="1.37981">
        <ele>145</ele>
        <time>2023-06-23T16:44:12Z</time>
      </trkpt>
      <trkpt lat="43.64526" lon="1.37982">
        <ele>146</ele>
        <time>2023-06-23T16:44:13Z</time>
      </trkpt>
      <trkpt lat="43.64526" lon="1.37982">
        <ele>146</ele>
        <time>2023-06-23T16:44:14Z</time>
      </trkpt>
      <trkpt lat="43.64528" lon="1.37983">
        <ele>146</ele>
        <time>2023-06-23T16:44:15Z</time>
      </trkpt>
      <trkpt lat="43.64528" lon="1.37983">
        <ele>146</ele>
        <time>2023-06-23T16:44:16Z</time>
      </trkpt>
      <trkpt lat="43.6453" lon="1.37985">
        <ele>146</ele>
        <time>2023-06-23T16:44:17Z</time>
      </trkpt>
      <trkpt lat="43.6453" lon="1.37985">
        <ele>146</ele>
        <time>2023-06-23T16:44:18Z</time>
      </trkpt>
      <trkpt lat="43.64532" lon="1.37986">
        <ele>146</ele>
        <time>2023-06-23T16:44:19Z</time>
      </trkpt>
      <trkpt lat="43.64532" lon="1.37986">
        <ele>146</ele>
        <time>2023-06-23T16:44:20Z</time>
      </trkpt>
      <trkpt lat="43.64534" lon="1.37987">
        <ele>146</ele>
        <time>2023-06-23T16:44:21Z</time>
      </trkpt>
      <trkpt lat="43.64534" lon="1.37987">
        <ele>146</ele>
        <time>2023-06-23T16:44:22Z</time>
      </trkpt>
      <trkpt lat="43.64536" lon="1.37988">
        <ele>146</ele>
        <time>2023-06-23T16:44:23Z</time>
      </trkpt>
      <trkpt lat="43.64536" lon="1.37988">
        <ele>146</ele>
        <time>2023-06-23T16:44:24Z</time>
      </trkpt>
      <trkpt lat="43.64538" lon="1.37989">
        <ele>146</ele>
        <time>2023-06-23T16:44:25Z</time>
      </trkpt>
      <trkpt lat="43.64538" lon="1.37989">
        <ele>146</ele>
        <time>2023-06-23T16:44:26Z</time>
      </trkpt>
      <trkpt lat="43.6454" lon="1.37989">
        <ele>146</ele>
        <time>2023-06-23T16:44:27Z</time>
      </trkpt>
      <trkpt lat="43.6454" lon="1.37989">
        <ele>146</ele>
        <time>2023-06-23T16:44:28Z</time>
      </trkpt>
      <trkpt lat="43.6454" lon="1.37989">
        <ele>146</ele>
        <time>2023-06-23T16:44:29Z</time>
      </trkpt>
      <trkpt lat="43.64542" lon="1.37989">
        <ele>146</ele>
        <time>2023-06-23T16:44:30Z</time>
      </trkpt>
      <trkpt lat="43.64542" lon="1.37989">
        <ele>146</ele>
        <time>2023-06-23T16:44:31Z</time>
      </trkpt>
      <trkpt lat="43.64542" lon="1.37989">
        <ele>146</ele>
        <time>2023-06-23T16:44:32Z</time>
      </trkpt>
      <trkpt lat="43.64544" lon="1.3799">
        <ele>146</ele>
        <time>2023-06-23T16:44:33Z</time>
      </trkpt>
      <trkpt lat="43.64544" lon="1.3799">
        <ele>146</ele>
        <time>2023-06-23T16:44:34Z</time>
      </trkpt>
      <trkpt lat="43.64544" lon="1.37993">
        <ele>146</ele>
        <time>2023-06-23T16:44:35Z</time>
      </trkpt>
      <trkpt lat="43.64544" lon="1.37993">
        <ele>146</ele>
        <time>2023-06-23T16:44:36Z</time>
      </trkpt>
      <trkpt lat="43.64544" lon="1.37993">
        <ele>146</ele>
        <time>2023-06-23T16:44:37Z</time>
      </trkpt>
      <trkpt lat="43.64544" lon="1.37993">
        <ele>146</ele>
        <time>2023-06-23T16:44:38Z</time>
      </trkpt>
      <trkpt lat="43.64546" lon="1.37995">
        <ele>146</ele>
        <time>2023-06-23T16:44:39Z</time>
      </trkpt>
      <trkpt lat="43.64546" lon="1.37995">
        <ele>146</ele>
        <time>2023-06-23T16:44:40Z</time>
      </trkpt>
      <trkpt lat="43.64546" lon="1.37995">
        <ele>146</ele>
        <time>2023-06-23T16:44:41Z</time>
      </trkpt>
      <trkpt lat="43.64546" lon="1.37995">
        <ele>147</ele>
        <time>2023-06-23T16:44:42Z</time>
      </trkpt>
      <trkpt lat="43.64546" lon="1.37995">
        <ele>147</ele>
        <time>2023-06-23T16:44:43Z</time>
      </trkpt>
      <trkpt lat="43.64546" lon="1.37995">
        <ele>147</ele>
        <time>2023-06-23T16:44:44Z</time>
      </trkpt>
      <trkpt lat="43.64546" lon="1.37995">
        <ele>147</ele>
        <time>2023-06-23T16:44:45Z</time>
      </trkpt>
      <trkpt lat="43.64546" lon="1.37995">
        <ele>147</ele>
        <time>2023-06-23T16:44:46Z</time>
      </trkpt>
      <trkpt lat="43.64546" lon="1.37995">
        <ele>147</ele>
        <time>2023-06-23T16:44:47Z</time>
      </trkpt>
      <trkpt lat="43.64546" lon="1.37995">
        <ele>147</ele>
        <time>2023-06-23T16:44:48Z</time>
      </trkpt>
      <trkpt lat="43.64546" lon="1.37995">
        <ele>147</ele>
        <time>2023-06-23T16:44:49Z</time>
      </trkpt>
      <trkpt lat="43.64546" lon="1.37995">
        <ele>147</ele>
        <time>2023-06-23T16:44:50Z</time>
      </trkpt>
      <trkpt lat="43.64546" lon="1.37995">
        <ele>147</ele>
        <time>2023-06-23T16:44:51Z</time>
      </trkpt>
      <trkpt lat="43.64546" lon="1.37995">
        <ele>147</ele>
        <time>2023-06-23T16:44:52Z</time>
      </trkpt>
      <trkpt lat="43.64546" lon="1.37995">
        <ele>147</ele>
        <time>2023-06-23T16:44:53Z</time>
      </trkpt>
      <trkpt lat="43.64546" lon="1.37995">
        <ele>147</ele>
        <time>2023-06-23T16:44:54Z</time>
      </trkpt>
      <trkpt lat="43.64546" lon="1.37995">
        <ele>147</ele>
        <time>2023-06-23T16:44:55Z</time>
      </trkpt>
      <trkpt lat="43.64546" lon="1.37995">
        <ele>147</ele>
        <time>2023-06-23T16:44:56Z</time>
      </trkpt>
      <trkpt lat="43.64546" lon="1.37995">
        <ele>147</ele>
        <time>2023-06-23T16:44:57Z</time>
      </trkpt>
      <trkpt lat="43.64546" lon="1.37995">
        <ele>147</ele>
        <time>2023-06-23T16:44:58Z</time>
      </trkpt>
      <trkpt lat="43.64546" lon="1.37995">
        <ele>147</ele>
        <time>2023-06-23T16:44:59Z</time>
      </trkpt>
      <trkpt lat="43.64546" lon="1.37995">
        <ele>147</ele>
        <time>2023-06-23T16:45:00Z</time>
      </trkpt>
      <trkpt lat="43.64546" lon="1.37995">
        <ele>147</ele>
        <time>2023-06-23T16:45:01Z</time>
      </trkpt>
      <trkpt lat="43.64546" lon="1.37995">
        <ele>147</ele>
        <time>2023-06-23T16:45:02Z</time>
      </trkpt>
      <trkpt lat="43.64546" lon="1.37995">
        <ele>147</ele>
        <time>2023-06-23T16:45:03Z</time>
      </trkpt>
      <trkpt lat="43.64546" lon="1.37995">
        <ele>147</ele>
        <time>2023-06-23T16:45:04Z</time>
      </trkpt>
      <trkpt lat="43.64546" lon="1.37995">
        <ele>146</ele>
        <time>2023-06-23T16:45:05Z</time>
      </trkpt>
      <trkpt lat="43.64546" lon="1.37995">
        <ele>146</ele>
        <time>2023-06-23T16:45:06Z</time>
      </trkpt>
      <trkpt lat="43.64546" lon="1.37995">
        <ele>146</ele>
        <time>2023-06-23T16:45:07Z</time>
      </trkpt>
      <trkpt lat="43.64545" lon="1.37993">
        <ele>146</ele>
        <time>2023-06-23T16:45:08Z</time>
      </trkpt>
      <trkpt lat="43.64545" lon="1.37993">
        <ele>146</ele>
        <time>2023-06-23T16:45:09Z</time>
      </trkpt>
      <trkpt lat="43.64545" lon="1.37993">
        <ele>146</ele>
        <time>2023-06-23T16:45:10Z</time>
      </trkpt>
      <trkpt lat="43.64545" lon="1.37993">
        <ele>146</ele>
        <time>2023-06-23T16:45:11Z</time>
      </trkpt>
      <trkpt lat="43.64545" lon="1.37993">
        <ele>146</ele>
        <time>2023-06-23T16:45:12Z</time>
      </trkpt>
      <trkpt lat="43.64545" lon="1.37993">
        <ele>146</ele>
        <time>2023-06-23T16:45:13Z</time>
      </trkpt>
      <trkpt lat="43.64545" lon="1.37993">
        <ele>146</ele>
        <time>2023-06-23T16:45:14Z</time>
      </trkpt>
      <trkpt lat="43.64545" lon="1.37993">
        <ele>146</ele>
        <time>2023-06-23T16:45:15Z</time>
      </trkpt>
      <trkpt lat="43.64545" lon="1.37993">
        <ele>146</ele>
        <time>2023-06-23T16:45:16Z</time>
      </trkpt>
      <trkpt lat="43.64545" lon="1.37993">
        <ele>146</ele>
        <time>2023-06-23T16:45:17Z</time>
      </trkpt>
      <trkpt lat="43.64545" lon="1.37993">
        <ele>146</ele>
        <time>2023-06-23T16:45:18Z</time>
      </trkpt>
      <trkpt lat="43.64545" lon="1.37993">
        <ele>146</ele>
        <time>2023-06-23T16:45:19Z</time>
      </trkpt>
      <trkpt lat="43.64545" lon="1.37993">
        <ele>146</ele>
        <time>2023-06-23T16:45:20Z</time>
      </trkpt>
      <trkpt lat="43.64545" lon="1.37993">
        <ele>146</ele>
        <time>2023-06-23T16:45:21Z</time>
      </trkpt>
      <trkpt lat="43.64545" lon="1.37993">
        <ele>146</ele>
        <time>2023-06-23T16:45:22Z</time>
      </trkpt>
      <trkpt lat="43.64545" lon="1.37993">
        <ele>146</ele>
        <time>2023-06-23T16:45:23Z</time>
      </trkpt>
      <trkpt lat="43.64545" lon="1.37993">
        <ele>146</ele>
        <time>2023-06-23T16:45:24Z</time>
      </trkpt>
      <trkpt lat="43.64545" lon="1.37993">
        <ele>146</ele>
        <time>2023-06-23T16:45:25Z</time>
      </trkpt>
      <trkpt lat="43.64545" lon="1.37993">
        <ele>146</ele>
        <time>2023-06-23T16:45:26Z</time>
      </trkpt>
      <trkpt lat="43.64545" lon="1.37993">
        <ele>146</ele>
        <time>2023-06-23T16:45:27Z</time>
      </trkpt>
      <trkpt lat="43.64545" lon="1.37993">
        <ele>146</ele>
        <time>2023-06-23T16:45:28Z</time>
      </trkpt>
      <trkpt lat="43.64545" lon="1.37993">
        <ele>146</ele>
        <time>2023-06-23T16:45:29Z</time>
      </trkpt>
      <trkpt lat="43.64545" lon="1.37993">
        <ele>146</ele>
        <time>2023-06-23T16:45:30Z</time>
      </trkpt>
      <trkpt lat="43.64545" lon="1.37993">
        <ele>146</ele>
        <time>2023-06-23T16:45:31Z</time>
      </trkpt>
      <trkpt lat="43.64547" lon="1.37994">
        <ele>146</ele>
        <time>2023-06-23T16:45:32Z</time>
      </trkpt>
      <trkpt lat="43.64547" lon="1.37994">
        <ele>146</ele>
        <time>2023-06-23T16:45:33Z</time>
      </trkpt>
      <trkpt lat="43.64547" lon="1.37994">
        <ele>146</ele>
        <time>2023-06-23T16:45:34Z</time>
      </trkpt>
      <trkpt lat="43.64547" lon="1.37994">
        <ele>146</ele>
        <time>2023-06-23T16:45:35Z</time>
      </trkpt>
      <trkpt lat="43.64547" lon="1.37994">
        <ele>146</ele>
        <time>2023-06-23T16:45:36Z</time>
      </trkpt>
      <trkpt lat="43.64548" lon="1.37995">
        <ele>146</ele>
        <time>2023-06-23T16:45:37Z</time>
      </trkpt>
      <trkpt lat="43.64548" lon="1.37995">
        <ele>146</ele>
        <time>2023-06-23T16:45:38Z</time>
      </trkpt>
      <trkpt lat="43.64549" lon="1.37999">
        <ele>146</ele>
        <time>2023-06-23T16:45:39Z</time>
      </trkpt>
      <trkpt lat="43.64549" lon="1.38002">
        <ele>147</ele>
        <time>2023-06-23T16:45:40Z</time>
      </trkpt>
      <trkpt lat="43.64549" lon="1.38002">
        <ele>147</ele>
        <time>2023-06-23T16:45:41Z</time>
      </trkpt>
      <trkpt lat="43.64546" lon="1.38003">
        <ele>147</ele>
        <time>2023-06-23T16:45:42Z</time>
      </trkpt>
      <trkpt lat="43.64544" lon="1.38">
        <ele>147</ele>
        <time>2023-06-23T16:45:43Z</time>
      </trkpt>
      <trkpt lat="43.64544" lon="1.37998">
        <ele>147</ele>
        <time>2023-06-23T16:45:44Z</time>
      </trkpt>
      <trkpt lat="43.64544" lon="1.37998">
        <ele>147</ele>
        <time>2023-06-23T16:45:45Z</time>
      </trkpt>
      <trkpt lat="43.64544" lon="1.37995">
        <ele>147</ele>
        <time>2023-06-23T16:45:46Z</time>
      </trkpt>
      <trkpt lat="43.64544" lon="1.37995">
        <ele>146</ele>
        <time>2023-06-23T16:45:47Z</time>
      </trkpt>
      <trkpt lat="43.64544" lon="1.37995">
        <ele>146</ele>
        <time>2023-06-23T16:45:48Z</time>
      </trkpt>
      <trkpt lat="43.64547" lon="1.37997">
        <ele>146</ele>
        <time>2023-06-23T16:45:49Z</time>
      </trkpt>
      <trkpt lat="43.64548" lon="1.37999">
        <ele>146</ele>
        <time>2023-06-23T16:45:50Z</time>
      </trkpt>
      <trkpt lat="43.64548" lon="1.38002">
        <ele>146</ele>
        <time>2023-06-23T16:45:51Z</time>
      </trkpt>
      <trkpt lat="43.64548" lon="1.38002">
        <ele>146</ele>
        <time>2023-06-23T16:45:52Z</time>
      </trkpt>
      <trkpt lat="43.64545" lon="1.37999">
        <ele>146</ele>
        <time>2023-06-23T16:45:53Z</time>
      </trkpt>
      <trkpt lat="43.64545" lon="1.37999">
        <ele>146</ele>
        <time>2023-06-23T16:45:54Z</time>
      </trkpt>
      <trkpt lat="43.64545" lon="1.37999">
        <ele>146</ele>
        <time>2023-06-23T16:45:55Z</time>
      </trkpt>
      <trkpt lat="43.64546" lon="1.37994">
        <ele>146</ele>
        <time>2023-06-23T16:45:56Z</time>
      </trkpt>
      <trkpt lat="43.64546" lon="1.37994">
        <ele>146</ele>
        <time>2023-06-23T16:45:57Z</time>
      </trkpt>
      <trkpt lat="43.64546" lon="1.37994">
        <ele>146</ele>
        <time>2023-06-23T16:45:58Z</time>
      </trkpt>
      <trkpt lat="43.64548" lon="1.37994">
        <ele>146</ele>
        <time>2023-06-23T16:45:59Z</time>
      </trkpt>
      <trkpt lat="43.64548" lon="1.37994">
        <ele>146</ele>
        <time>2023-06-23T16:46:00Z</time>
      </trkpt>
      <trkpt lat="43.64549" lon="1.37999">
        <ele>146</ele>
        <time>2023-06-23T16:46:01Z</time>
      </trkpt>
      <trkpt lat="43.64548" lon="1.38003">
        <ele>146</ele>
        <time>2023-06-23T16:46:02Z</time>
      </trkpt>
      <trkpt lat="43.64548" lon="1.38003">
        <ele>147</ele>
        <time>2023-06-23T16:46:03Z</time>
      </trkpt>
      <trkpt lat="43.64547" lon="1.38003">
        <ele>147</ele>
        <time>2023-06-23T16:46:04Z</time>
      </trkpt>
      <trkpt lat="43.64546" lon="1.38">
        <ele>147</ele>
        <time>2023-06-23T16:46:05Z</time>
      </trkpt>
      <trkpt lat="43.64546" lon="1.37995">
        <ele>147</ele>
        <time>2023-06-23T16:46:06Z</time>
      </trkpt>
      <trkpt lat="43.64546" lon="1.37994">
        <ele>147</ele>
        <time>2023-06-23T16:46:07Z</time>
      </trkpt>
      <trkpt lat="43.64546" lon="1.37994">
        <ele>146</ele>
        <time>2023-06-23T16:46:08Z</time>
      </trkpt>
      <trkpt lat="43.64548" lon="1.37992">
        <ele>146</ele>
        <time>2023-06-23T16:46:09Z</time>
      </trkpt>
      <trkpt lat="43.64548" lon="1.37992">
        <ele>146</ele>
        <time>2023-06-23T16:46:10Z</time>
      </trkpt>
      <trkpt lat="43.64549" lon="1.37995">
        <ele>146</ele>
        <time>2023-06-23T16:46:11Z</time>
      </trkpt>
      <trkpt lat="43.64548" lon="1.38002">
        <ele>147</ele>
        <time>2023-06-23T16:46:12Z</time>
      </trkpt>
      <trkpt lat="43.64548" lon="1.38002">
        <ele>147</ele>
        <time>2023-06-23T16:46:13Z</time>
      </trkpt>
      <trkpt lat="43.64547" lon="1.38001">
        <ele>147</ele>
        <time>2023-06-23T16:46:14Z</time>
      </trkpt>
      <trkpt lat="43.64546" lon="1.38001">
        <ele>147</ele>
        <time>2023-06-23T16:46:15Z</time>
      </trkpt>
      <trkpt lat="43.64544" lon="1.38">
        <ele>146</ele>
        <time>2023-06-23T16:46:16Z</time>
      </trkpt>
      <trkpt lat="43.64544" lon="1.37997">
        <ele>147</ele>
        <time>2023-06-23T16:46:17Z</time>
      </trkpt>
      <trkpt lat="43.64544" lon="1.37997">
        <ele>147</ele>
        <time>2023-06-23T16:46:18Z</time>
      </trkpt>
      <trkpt lat="43.64546" lon="1.37994">
        <ele>146</ele>
        <time>2023-06-23T16:46:19Z</time>
      </trkpt>
      <trkpt lat="43.64545" lon="1.37995">
        <ele>146</ele>
        <time>2023-06-23T16:46:20Z</time>
      </trkpt>
      <trkpt lat="43.64545" lon="1.37996">
        <ele>146</ele>
        <time>2023-06-23T16:46:21Z</time>
      </trkpt>
      <trkpt lat="43.64545" lon="1.37996">
        <ele>146</ele>
        <time>2023-06-23T16:46:22Z</time>
      </trkpt>
      <trkpt lat="43.64545" lon="1.37997">
        <ele>146</ele>
        <time>2023-06-23T16:46:23Z</time>
      </trkpt>
      <trkpt lat="43.64545" lon="1.37998">
        <ele>146</ele>
        <time>2023-06-23T16:46:24Z</time>
      </trkpt>
      <trkpt lat="43.64545" lon="1.37999">
        <ele>146</ele>
        <time>2023-06-23T16:46:25Z</time>
      </trkpt>
      <trkpt lat="43.64545" lon="1.37999">
        <ele>146</ele>
        <time>2023-06-23T16:46:26Z</time>
      </trkpt>
      <trkpt lat="43.64545" lon="1.38">
        <ele>146</ele>
        <time>2023-06-23T16:46:27Z</time>
      </trkpt>
      <trkpt lat="43.64545" lon="1.38001">
        <ele>146</ele>
        <time>2023-06-23T16:46:28Z</time>
      </trkpt>
      <trkpt lat="43.64545" lon="1.37998">
        <ele>146</ele>
        <time>2023-06-23T16:46:29Z</time>
      </trkpt>
      <trkpt lat="43.64545" lon="1.37995">
        <ele>146</ele>
        <time>2023-06-23T16:46:30Z</time>
      </trkpt>
      <trkpt lat="43.64545" lon="1.37995">
        <ele>145</ele>
        <time>2023-06-23T16:46:31Z</time>
      </trkpt>
      <trkpt lat="43.64547" lon="1.37993">
        <ele>145</ele>
        <time>2023-06-23T16:46:32Z</time>
      </trkpt>
      <trkpt lat="43.64547" lon="1.37993">
        <ele>145</ele>
        <time>2023-06-23T16:46:33Z</time>
      </trkpt>
      <trkpt lat="43.64549" lon="1.37995">
        <ele>145</ele>
        <time>2023-06-23T16:46:34Z</time>
      </trkpt>
      <trkpt lat="43.64549" lon="1.37998">
        <ele>146</ele>
        <time>2023-06-23T16:46:35Z</time>
      </trkpt>
      <trkpt lat="43.64549" lon="1.38001">
        <ele>146</ele>
        <time>2023-06-23T16:46:36Z</time>
      </trkpt>
      <trkpt lat="43.64549" lon="1.38001">
        <ele>146</ele>
        <time>2023-06-23T16:46:37Z</time>
      </trkpt>
      <trkpt lat="43.64546" lon="1.38002">
        <ele>146</ele>
        <time>2023-06-23T16:46:38Z</time>
      </trkpt>
      <trkpt lat="43.64546" lon="1.38002">
        <ele>146</ele>
        <time>2023-06-23T16:46:39Z</time>
      </trkpt>
      <trkpt lat="43.64545" lon="1.37997">
        <ele>146</ele>
        <time>2023-06-23T16:46:40Z</time>
      </trkpt>
      <trkpt lat="43.64545" lon="1.37997">
        <ele>146</ele>
        <time>2023-06-23T16:46:41Z</time>
      </trkpt>
      <trkpt lat="43.64545" lon="1.37997">
        <ele>146</ele>
        <time>2023-06-23T16:46:42Z</time>
      </trkpt>
      <trkpt lat="43.64546" lon="1.37995">
        <ele>146</ele>
        <time>2023-06-23T16:46:43Z</time>
      </trkpt>
      <trkpt lat="43.64546" lon="1.37995">
        <ele>146</ele>
        <time>2023-06-23T16:46:44Z</time>
      </trkpt>
      <trkpt lat="43.64547" lon="1.37997">
        <ele>146</ele>
        <time>2023-06-23T16:46:45Z</time>
      </trkpt>
      <trkpt lat="43.64548" lon="1.38">
        <ele>146</ele>
        <time>2023-06-23T16:46:46Z</time>
      </trkpt>
      <trkpt lat="43.64548" lon="1.38002">
        <ele>146</ele>
        <time>2023-06-23T16:46:47Z</time>
      </trkpt>
      <trkpt lat="43.64548" lon="1.38002">
        <ele>146</ele>
        <time>2023-06-23T16:46:48Z</time>
      </trkpt>
      <trkpt lat="43.64548" lon="1.38002">
        <ele>147</ele>
        <time>2023-06-23T16:46:49Z</time>
      </trkpt>
      <trkpt lat="43.64546" lon="1.38001">
        <ele>147</ele>
        <time>2023-06-23T16:46:50Z</time>
      </trkpt>
      <trkpt lat="43.64545" lon="1.37999">
        <ele>146</ele>
        <time>2023-06-23T16:46:51Z</time>
      </trkpt>
      <trkpt lat="43.64545" lon="1.37996">
        <ele>146</ele>
        <time>2023-06-23T16:46:52Z</time>
      </trkpt>
      <trkpt lat="43.64545" lon="1.37996">
        <ele>146</ele>
        <time>2023-06-23T16:46:53Z</time>
      </trkpt>
      <trkpt lat="43.64547" lon="1.37993">
        <ele>145</ele>
        <time>2023-06-23T16:46:54Z</time>
      </trkpt>
      <trkpt lat="43.64547" lon="1.37993">
        <ele>145</ele>
        <time>2023-06-23T16:46:55Z</time>
      </trkpt>
      <trkpt lat="43.64547" lon="1.37993">
        <ele>145</ele>
        <time>2023-06-23T16:46:56Z</time>
      </trkpt>
      <trkpt lat="43.64549" lon="1.37996">
        <ele>146</ele>
        <time>2023-06-23T16:46:57Z</time>
      </trkpt>
      <trkpt lat="43.64549" lon="1.38">
        <ele>146</ele>
        <time>2023-06-23T16:46:58Z</time>
      </trkpt>
      <trkpt lat="43.64549" lon="1.38002">
        <ele>146</ele>
        <time>2023-06-23T16:46:59Z</time>
      </trkpt>
      <trkpt lat="43.64549" lon="1.38002">
        <ele>146</ele>
        <time>2023-06-23T16:47:00Z</time>
      </trkpt>
      <trkpt lat="43.64548" lon="1.38">
        <ele>146</ele>
        <time>2023-06-23T16:47:01Z</time>
      </trkpt>
      <trkpt lat="43.64547" lon="1.37998">
        <ele>146</ele>
        <time>2023-06-23T16:47:02Z</time>
      </trkpt>
      <trkpt lat="43.64546" lon="1.37996">
        <ele>146</ele>
        <time>2023-06-23T16:47:03Z</time>
      </trkpt>
      <trkpt lat="43.64546" lon="1.37996">
        <ele>146</ele>
        <time>2023-06-23T16:47:04Z</time>
      </trkpt>
      <trkpt lat="43.64548" lon="1.37994">
        <ele>146</ele>
        <time>2023-06-23T16:47:05Z</time>
      </trkpt>
      <trkpt lat="43.64547" lon="1.37996">
        <ele>146</ele>
        <time>2023-06-23T16:47:06Z</time>
      </trkpt>
      <trkpt lat="43.64547" lon="1.37999">
        <ele>146</ele>
        <time>2023-06-23T16:47:07Z</time>
      </trkpt>
      <trkpt lat="43.64547" lon="1.38001">
        <ele>145</ele>
        <time>2023-06-23T16:47:08Z</time>
      </trkpt>
      <trkpt lat="43.64547" lon="1.38004">
        <ele>146</ele>
        <time>2023-06-23T16:47:09Z</time>
      </trkpt>
      <trkpt lat="43.64547" lon="1.38004">
        <ele>146</ele>
        <time>2023-06-23T16:47:10Z</time>
      </trkpt>
      <trkpt lat="43.64547" lon="1.38004">
        <ele>146</ele>
        <time>2023-06-23T16:47:11Z</time>
      </trkpt>
      <trkpt lat="43.64544" lon="1.38004">
        <ele>146</ele>
        <time>2023-06-23T16:47:12Z</time>
      </trkpt>
      <trkpt lat="43.64544" lon="1.38001">
        <ele>146</ele>
        <time>2023-06-23T16:47:13Z</time>
      </trkpt>
      <trkpt lat="43.64544" lon="1.38001">
        <ele>146</ele>
        <time>2023-06-23T16:47:14Z</time>
      </trkpt>
      <trkpt lat="43.64543" lon="1.37996">
        <ele>146</ele>
        <time>2023-06-23T16:47:15Z</time>
      </trkpt>
      <trkpt lat="43.64543" lon="1.37996">
        <ele>146</ele>
        <time>2023-06-23T16:47:16Z</time>
      </trkpt>
      <trkpt lat="43.64544" lon="1.37996">
        <ele>146</ele>
        <time>2023-06-23T16:47:17Z</time>
      </trkpt>
      <trkpt lat="43.64544" lon="1.37996">
        <ele>146</ele>
        <time>2023-06-23T16:47:18Z</time>
      </trkpt>
      <trkpt lat="43.64544" lon="1.37996">
        <ele>146</ele>
        <time>2023-06-23T16:47:19Z</time>
      </trkpt>
      <trkpt lat="43.64546" lon="1.37998">
        <ele>147</ele>
        <time>2023-06-23T16:47:20Z</time>
      </trkpt>
      <trkpt lat="43.64546" lon="1.37998">
        <ele>147</ele>
        <time>2023-06-23T16:47:21Z</time>
      </trkpt>
      <trkpt lat="43.64547" lon="1.38001">
        <ele>147</ele>
        <time>2023-06-23T16:47:22Z</time>
      </trkpt>
      <trkpt lat="43.64547" lon="1.38001">
        <ele>147</ele>
        <time>2023-06-23T16:47:23Z</time>
      </trkpt>
      <trkpt lat="43.64548" lon="1.38004">
        <ele>146</ele>
        <time>2023-06-23T16:47:24Z</time>
      </trkpt>
      <trkpt lat="43.64548" lon="1.38004">
        <ele>146</ele>
        <time>2023-06-23T16:47:25Z</time>
      </trkpt>
      <trkpt lat="43.64548" lon="1.38004">
        <ele>146</ele>
        <time>2023-06-23T16:47:26Z</time>
      </trkpt>
      <trkpt lat="43.64547" lon="1.38007">
        <ele>146</ele>
        <time>2023-06-23T16:47:27Z</time>
      </trkpt>
      <trkpt lat="43.64547" lon="1.38007">
        <ele>146</ele>
        <time>2023-06-23T16:47:28Z</time>
      </trkpt>
      <trkpt lat="43.64547" lon="1.38007">
        <ele>146</ele>
        <time>2023-06-23T16:47:29Z</time>
      </trkpt>
      <trkpt lat="43.64545" lon="1.38004">
        <ele>146</ele>
        <time>2023-06-23T16:47:30Z</time>
      </trkpt>
      <trkpt lat="43.64545" lon="1.38004">
        <ele>146</ele>
        <time>2023-06-23T16:47:31Z</time>
      </trkpt>
      <trkpt lat="43.64545" lon="1.38001">
        <ele>146</ele>
        <time>2023-06-23T16:47:32Z</time>
      </trkpt>
      <trkpt lat="43.64545" lon="1.38001">
        <ele>146</ele>
        <time>2023-06-23T16:47:33Z</time>
      </trkpt>
      <trkpt lat="43.64545" lon="1.37998">
        <ele>146</ele>
        <time>2023-06-23T16:47:34Z</time>
      </trkpt>
      <trkpt lat="43.64545" lon="1.37998">
        <ele>146</ele>
        <time>2023-06-23T16:47:35Z</time>
      </trkpt>
      <trkpt lat="43.64545" lon="1.37994">
        <ele>146</ele>
        <time>2023-06-23T16:47:36Z</time>
      </trkpt>
      <trkpt lat="43.64545" lon="1.37994">
        <ele>145</ele>
        <time>2023-06-23T16:47:37Z</time>
      </trkpt>
      <trkpt lat="43.64546" lon="1.37991">
        <ele>145</ele>
        <time>2023-06-23T16:47:38Z</time>
      </trkpt>
      <trkpt lat="43.64546" lon="1.37991">
        <ele>145</ele>
        <time>2023-06-23T16:47:39Z</time>
      </trkpt>
      <trkpt lat="43.64547" lon="1.37989">
        <ele>145</ele>
        <time>2023-06-23T16:47:40Z</time>
      </trkpt>
      <trkpt lat="43.64547" lon="1.37989">
        <ele>146</ele>
        <time>2023-06-23T16:47:41Z</time>
      </trkpt>
      <trkpt lat="43.64549" lon="1.37986">
        <ele>146</ele>
        <time>2023-06-23T16:47:42Z</time>
      </trkpt>
      <trkpt lat="43.64549" lon="1.37986">
        <ele>146</ele>
        <time>2023-06-23T16:47:43Z</time>
      </trkpt>
      <trkpt lat="43.6455" lon="1.37984">
        <ele>146</ele>
        <time>2023-06-23T16:47:44Z</time>
      </trkpt>
      <trkpt lat="43.6455" lon="1.37984">
        <ele>146</ele>
        <time>2023-06-23T16:47:45Z</time>
      </trkpt>
      <trkpt lat="43.6455" lon="1.37984">
        <ele>146</ele>
        <time>2023-06-23T16:47:46Z</time>
      </trkpt>
      <trkpt lat="43.64551" lon="1.37982">
        <ele>146</ele>
        <time>2023-06-23T16:47:47Z</time>
      </trkpt>
      <trkpt lat="43.64551" lon="1.37982">
        <ele>146</ele>
        <time>2023-06-23T16:47:48Z</time>
      </trkpt>
      <trkpt lat="43.64553" lon="1.3798">
        <ele>146</ele>
        <time>2023-06-23T16:47:49Z</time>
      </trkpt>
      <trkpt lat="43.64553" lon="1.3798">
        <ele>146</ele>
        <time>2023-06-23T16:47:50Z</time>
      </trkpt>
      <trkpt lat="43.64555" lon="1.37979">
        <ele>146</ele>
        <time>2023-06-23T16:47:51Z</time>
      </trkpt>
      <trkpt lat="43.64555" lon="1.37979">
        <ele>146</ele>
        <time>2023-06-23T16:47:52Z</time>
      </trkpt>
      <trkpt lat="43.64557" lon="1.37977">
        <ele>146</ele>
        <time>2023-06-23T16:47:53Z</time>
      </trkpt>
      <trkpt lat="43.64557" lon="1.37977">
        <ele>146</ele>
        <time>2023-06-23T16:47:54Z</time>
      </trkpt>
      <trkpt lat="43.64558" lon="1.37975">
        <ele>146</ele>
        <time>2023-06-23T16:47:55Z</time>
      </trkpt>
      <trkpt lat="43.64558" lon="1.37975">
        <ele>146</ele>
        <time>2023-06-23T16:47:56Z</time>
      </trkpt>
      <trkpt lat="43.6456" lon="1.37972">
        <ele>146</ele>
        <time>2023-06-23T16:47:57Z</time>
      </trkpt>
      <trkpt lat="43.6456" lon="1.37972">
        <ele>146</ele>
        <time>2023-06-23T16:47:58Z</time>
      </trkpt>
      <trkpt lat="43.64562" lon="1.3797">
        <ele>146</ele>
        <time>2023-06-23T16:47:59Z</time>
      </trkpt>
      <trkpt lat="43.64562" lon="1.3797">
        <ele>146</ele>
        <time>2023-06-23T16:48:00Z</time>
      </trkpt>
      <trkpt lat="43.64563" lon="1.37967">
        <ele>146</ele>
        <time>2023-06-23T16:48:01Z</time>
      </trkpt>
      <trkpt lat="43.64563" lon="1.37967">
        <ele>146</ele>
        <time>2023-06-23T16:48:02Z</time>
      </trkpt>
      <trkpt lat="43.64565" lon="1.37965">
        <ele>146</ele>
        <time>2023-06-23T16:48:03Z</time>
      </trkpt>
      <trkpt lat="43.64565" lon="1.37965">
        <ele>146</ele>
        <time>2023-06-23T16:48:04Z</time>
      </trkpt>
      <trkpt lat="43.64566" lon="1.37962">
        <ele>146</ele>
        <time>2023-06-23T16:48:05Z</time>
      </trkpt>
      <trkpt lat="43.64566" lon="1.37962">
        <ele>146</ele>
        <time>2023-06-23T16:48:06Z</time>
      </trkpt>
      <trkpt lat="43.64567" lon="1.37958">
        <ele>146</ele>
        <time>2023-06-23T16:48:07Z</time>
      </trkpt>
      <trkpt lat="43.64567" lon="1.37958">
        <ele>146</ele>
        <time>2023-06-23T16:48:08Z</time>
      </trkpt>
      <trkpt lat="43.64568" lon="1.37955">
        <ele>146</ele>
        <time>2023-06-23T16:48:09Z</time>
      </trkpt>
      <trkpt lat="43.64568" lon="1.37955">
        <ele>146</ele>
        <time>2023-06-23T16:48:10Z</time>
      </trkpt>
      <trkpt lat="43.64569" lon="1.37952">
        <ele>146</ele>
        <time>2023-06-23T16:48:11Z</time>
      </trkpt>
      <trkpt lat="43.64569" lon="1.37952">
        <ele>146</ele>
        <time>2023-06-23T16:48:12Z</time>
      </trkpt>
      <trkpt lat="43.64569" lon="1.37949">
        <ele>146</ele>
        <time>2023-06-23T16:48:13Z</time>
      </trkpt>
      <trkpt lat="43.64569" lon="1.37949">
        <ele>146</ele>
        <time>2023-06-23T16:48:14Z</time>
      </trkpt>
      <trkpt lat="43.64569" lon="1.37946">
        <ele>146</ele>
        <time>2023-06-23T16:48:15Z</time>
      </trkpt>
      <trkpt lat="43.64569" lon="1.37946">
        <ele>146</ele>
        <time>2023-06-23T16:48:16Z</time>
      </trkpt>
      <trkpt lat="43.64569" lon="1.37943">
        <ele>146</ele>
        <time>2023-06-23T16:48:17Z</time>
      </trkpt>
      <trkpt lat="43.64569" lon="1.37943">
        <ele>146</ele>
        <time>2023-06-23T16:48:18Z</time>
      </trkpt>
      <trkpt lat="43.64569" lon="1.3794">
        <ele>146</ele>
        <time>2023-06-23T16:48:19Z</time>
      </trkpt>
      <trkpt lat="43.64569" lon="1.3794">
        <ele>146</ele>
        <time>2023-06-23T16:48:20Z</time>
      </trkpt>
      <trkpt lat="43.64569" lon="1.37937">
        <ele>146</ele>
        <time>2023-06-23T16:48:21Z</time>
      </trkpt>
      <trkpt lat="43.64569" lon="1.37937">
        <ele>146</ele>
        <time>2023-06-23T16:48:22Z</time>
      </trkpt>
      <trkpt lat="43.64568" lon="1.37934">
        <ele>146</ele>
        <time>2023-06-23T16:48:23Z</time>
      </trkpt>
      <trkpt lat="43.64568" lon="1.37934">
        <ele>146</ele>
        <time>2023-06-23T16:48:24Z</time>
      </trkpt>
      <trkpt lat="43.64567" lon="1.37932">
        <ele>146</ele>
        <time>2023-06-23T16:48:25Z</time>
      </trkpt>
      <trkpt lat="43.64567" lon="1.37932">
        <ele>146</ele>
        <time>2023-06-23T16:48:26Z</time>
      </trkpt>
      <trkpt lat="43.64567" lon="1.37932">
        <ele>146</ele>
        <time>2023-06-23T16:48:27Z</time>
      </trkpt>
      <trkpt lat="43.64567" lon="1.37932">
        <ele>146</ele>
        <time>2023-06-23T16:48:28Z</time>
      </trkpt>
      <trkpt lat="43.64567" lon="1.37932">
        <ele>146</ele>
        <time>2023-06-23T16:48:29Z</time>
      </trkpt>
      <trkpt lat="43.64566" lon="1.3793">
        <ele>146</ele>
        <time>2023-06-23T16:48:30Z</time>
      </trkpt>
      <trkpt lat="43.64566" lon="1.3793">
        <ele>146</ele>
        <time>2023-06-23T16:48:31Z</time>
      </trkpt>
      <trkpt lat="43.64565" lon="1.37927">
        <ele>146</ele>
        <time>2023-06-23T16:48:32Z</time>
      </trkpt>
      <trkpt lat="43.64565" lon="1.37927">
        <ele>146</ele>
        <time>2023-06-23T16:48:33Z</time>
      </trkpt>
      <trkpt lat="43.64564" lon="1.37924">
        <ele>146</ele>
        <time>2023-06-23T16:48:34Z</time>
      </trkpt>
      <trkpt lat="43.64564" lon="1.37924">
        <ele>146</ele>
        <time>2023-06-23T16:48:35Z</time>
      </trkpt>
      <trkpt lat="43.64563" lon="1.37922">
        <ele>146</ele>
        <time>2023-06-23T16:48:36Z</time>
      </trkpt>
      <trkpt lat="43.64563" lon="1.37922">
        <ele>146</ele>
        <time>2023-06-23T16:48:37Z</time>
      </trkpt>
      <trkpt lat="43.64562" lon="1.37919">
        <ele>146</ele>
        <time>2023-06-23T16:48:38Z</time>
      </trkpt>
      <trkpt lat="43.64562" lon="1.37919">
        <ele>146</ele>
        <time>2023-06-23T16:48:39Z</time>
      </trkpt>
      <trkpt lat="43.64561" lon="1.37917">
        <ele>146</ele>
        <time>2023-06-23T16:48:40Z</time>
      </trkpt>
      <trkpt lat="43.64561" lon="1.37917">
        <ele>146</ele>
        <time>2023-06-23T16:48:41Z</time>
      </trkpt>
      <trkpt lat="43.64559" lon="1.37914">
        <ele>146</ele>
        <time>2023-06-23T16:48:42Z</time>
      </trkpt>
      <trkpt lat="43.64559" lon="1.37914">
        <ele>146</ele>
        <time>2023-06-23T16:48:43Z</time>
      </trkpt>
      <trkpt lat="43.64558" lon="1.37912">
        <ele>146</ele>
        <time>2023-06-23T16:48:44Z</time>
      </trkpt>
      <trkpt lat="43.64558" lon="1.37912">
        <ele>146</ele>
        <time>2023-06-23T16:48:45Z</time>
      </trkpt>
      <trkpt lat="43.64556" lon="1.3791">
        <ele>146</ele>
        <time>2023-06-23T16:48:46Z</time>
      </trkpt>
      <trkpt lat="43.64556" lon="1.3791">
        <ele>146</ele>
        <time>2023-06-23T16:48:47Z</time>
      </trkpt>
      <trkpt lat="43.64554" lon="1.37908">
        <ele>146</ele>
        <time>2023-06-23T16:48:48Z</time>
      </trkpt>
      <trkpt lat="43.64554" lon="1.37908">
        <ele>146</ele>
        <time>2023-06-23T16:48:49Z</time>
      </trkpt>
      <trkpt lat="43.64553" lon="1.37907">
        <ele>146</ele>
        <time>2023-06-23T16:48:50Z</time>
      </trkpt>
      <trkpt lat="43.64553" lon="1.37907">
        <ele>146</ele>
        <time>2023-06-23T16:48:51Z</time>
      </trkpt>
      <trkpt lat="43.64551" lon="1.37905">
        <ele>146</ele>
        <time>2023-06-23T16:48:52Z</time>
      </trkpt>
      <trkpt lat="43.64551" lon="1.37905">
        <ele>146</ele>
        <time>2023-06-23T16:48:53Z</time>
      </trkpt>
      <trkpt lat="43.64549" lon="1.37904">
        <ele>146</ele>
        <time>2023-06-23T16:48:54Z</time>
      </trkpt>
      <trkpt lat="43.64549" lon="1.37904">
        <ele>146</ele>
        <time>2023-06-23T16:48:55Z</time>
      </trkpt>
      <trkpt lat="43.64547" lon="1.37903">
        <ele>146</ele>
        <time>2023-06-23T16:48:56Z</time>
      </trkpt>
      <trkpt lat="43.64547" lon="1.37903">
        <ele>146</ele>
        <time>2023-06-23T16:48:57Z</time>
      </trkpt>
      <trkpt lat="43.64545" lon="1.37901">
        <ele>146</ele>
        <time>2023-06-23T16:48:58Z</time>
      </trkpt>
      <trkpt lat="43.64545" lon="1.37901">
        <ele>146</ele>
        <time>2023-06-23T16:48:59Z</time>
      </trkpt>
      <trkpt lat="43.64543" lon="1.37899">
        <ele>146</ele>
        <time>2023-06-23T16:49:00Z</time>
      </trkpt>
      <trkpt lat="43.64543" lon="1.37899">
        <ele>146</ele>
        <time>2023-06-23T16:49:01Z</time>
      </trkpt>
      <trkpt lat="43.64541" lon="1.37898">
        <ele>146</ele>
        <time>2023-06-23T16:49:02Z</time>
      </trkpt>
      <trkpt lat="43.64541" lon="1.37898">
        <ele>146</ele>
        <time>2023-06-23T16:49:03Z</time>
      </trkpt>
      <trkpt lat="43.64539" lon="1.37897">
        <ele>146</ele>
        <time>2023-06-23T16:49:04Z</time>
      </trkpt>
      <trkpt lat="43.64539" lon="1.37897">
        <ele>146</ele>
        <time>2023-06-23T16:49:05Z</time>
      </trkpt>
      <trkpt lat="43.64537" lon="1.37896">
        <ele>146</ele>
        <time>2023-06-23T16:49:06Z</time>
      </trkpt>
      <trkpt lat="43.64537" lon="1.37896">
        <ele>146</ele>
        <time>2023-06-23T16:49:07Z</time>
      </trkpt>
      <trkpt lat="43.64535" lon="1.37895">
        <ele>146</ele>
        <time>2023-06-23T16:49:08Z</time>
      </trkpt>
      <trkpt lat="43.64535" lon="1.37895">
        <ele>146</ele>
        <time>2023-06-23T16:49:09Z</time>
      </trkpt>
      <trkpt lat="43.64533" lon="1.37893">
        <ele>146</ele>
        <time>2023-06-23T16:49:10Z</time>
      </trkpt>
      <trkpt lat="43.64533" lon="1.37893">
        <ele>146</ele>
        <time>2023-06-23T16:49:11Z</time>
      </trkpt>
      <trkpt lat="43.64531" lon="1.37892">
        <ele>146</ele>
        <time>2023-06-23T16:49:12Z</time>
      </trkpt>
      <trkpt lat="43.64531" lon="1.37892">
        <ele>146</ele>
        <time>2023-06-23T16:49:13Z</time>
      </trkpt>
      <trkpt lat="43.64529" lon="1.3789">
        <ele>146</ele>
        <time>2023-06-23T16:49:14Z</time>
      </trkpt>
      <trkpt lat="43.64529" lon="1.3789">
        <ele>146</ele>
        <time>2023-06-23T16:49:15Z</time>
      </trkpt>
      <trkpt lat="43.64527" lon="1.37889">
        <ele>146</ele>
        <time>2023-06-23T16:49:16Z</time>
      </trkpt>
      <trkpt lat="43.64527" lon="1.37889">
        <ele>146</ele>
        <time>2023-06-23T16:49:17Z</time>
      </trkpt>
      <trkpt lat="43.64525" lon="1.37888">
        <ele>146</ele>
        <time>2023-06-23T16:49:18Z</time>
      </trkpt>
      <trkpt lat="43.64525" lon="1.37888">
        <ele>146</ele>
        <time>2023-06-23T16:49:19Z</time>
      </trkpt>
      <trkpt lat="43.64523" lon="1.37887">
        <ele>146</ele>
        <time>2023-06-23T16:49:20Z</time>
      </trkpt>
      <trkpt lat="43.64523" lon="1.37887">
        <ele>146</ele>
        <time>2023-06-23T16:49:21Z</time>
      </trkpt>
      <trkpt lat="43.64521" lon="1.37885">
        <ele>146</ele>
        <time>2023-06-23T16:49:22Z</time>
      </trkpt>
      <trkpt lat="43.64521" lon="1.37885">
        <ele>146</ele>
        <time>2023-06-23T16:49:23Z</time>
      </trkpt>
      <trkpt lat="43.6452" lon="1.37884">
        <ele>146</ele>
        <time>2023-06-23T16:49:24Z</time>
      </trkpt>
      <trkpt lat="43.6452" lon="1.37884">
        <ele>146</ele>
        <time>2023-06-23T16:49:25Z</time>
      </trkpt>
      <trkpt lat="43.64517" lon="1.37883">
        <ele>146</ele>
        <time>2023-06-23T16:49:26Z</time>
      </trkpt>
      <trkpt lat="43.64517" lon="1.37883">
        <ele>146</ele>
        <time>2023-06-23T16:49:27Z</time>
      </trkpt>
      <trkpt lat="43.64515" lon="1.37882">
        <ele>146</ele>
        <time>2023-06-23T16:49:28Z</time>
      </trkpt>
      <trkpt lat="43.64515" lon="1.37882">
        <ele>146</ele>
        <time>2023-06-23T16:49:29Z</time>
      </trkpt>
      <trkpt lat="43.64513" lon="1.37881">
        <ele>146</ele>
        <time>2023-06-23T16:49:30Z</time>
      </trkpt>
      <trkpt lat="43.64513" lon="1.37881">
        <ele>146</ele>
        <time>2023-06-23T16:49:31Z</time>
      </trkpt>
      <trkpt lat="43.64511" lon="1.3788">
        <ele>146</ele>
        <time>2023-06-23T16:49:32Z</time>
      </trkpt>
      <trkpt lat="43.64511" lon="1.3788">
        <ele>146</ele>
        <time>2023-06-23T16:49:33Z</time>
      </trkpt>
      <trkpt lat="43.6451" lon="1.37879">
        <ele>146</ele>
        <time>2023-06-23T16:49:34Z</time>
      </trkpt>
      <trkpt lat="43.6451" lon="1.37879">
        <ele>146</ele>
        <time>2023-06-23T16:49:35Z</time>
      </trkpt>
      <trkpt lat="43.64508" lon="1.37878">
        <ele>146</ele>
        <time>2023-06-23T16:49:36Z</time>
      </trkpt>
      <trkpt lat="43.64508" lon="1.37878">
        <ele>146</ele>
        <time>2023-06-23T16:49:37Z</time>
      </trkpt>
      <trkpt lat="43.64506" lon="1.37876">
        <ele>146</ele>
        <time>2023-06-23T16:49:38Z</time>
      </trkpt>
      <trkpt lat="43.64506" lon="1.37876">
        <ele>146</ele>
        <time>2023-06-23T16:49:39Z</time>
      </trkpt>
      <trkpt lat="43.64504" lon="1.37875">
        <ele>146</ele>
        <time>2023-06-23T16:49:40Z</time>
      </trkpt>
      <trkpt lat="43.64503" lon="1.37874">
        <ele>146</ele>
        <time>2023-06-23T16:49:41Z</time>
      </trkpt>
      <trkpt lat="43.64503" lon="1.37874">
        <ele>146</ele>
        <time>2023-06-23T16:49:42Z</time>
      </trkpt>
      <trkpt lat="43.64503" lon="1.37874">
        <ele>146</ele>
        <time>2023-06-23T16:49:43Z</time>
      </trkpt>
      <trkpt lat="43.64503" lon="1.37874">
        <ele>146</ele>
        <time>2023-06-23T16:49:44Z</time>
      </trkpt>
      <trkpt lat="43.645" lon="1.37873">
        <ele>146</ele>
        <time>2023-06-23T16:49:45Z</time>
      </trkpt>
      <trkpt lat="43.645" lon="1.37873">
        <ele>146</ele>
        <time>2023-06-23T16:49:46Z</time>
      </trkpt>
      <trkpt lat="43.64498" lon="1.37873">
        <ele>146</ele>
        <time>2023-06-23T16:49:47Z</time>
      </trkpt>
      <trkpt lat="43.64498" lon="1.37873">
        <ele>146</ele>
        <time>2023-06-23T16:49:48Z</time>
      </trkpt>
      <trkpt lat="43.64495" lon="1.37873">
        <ele>146</ele>
        <time>2023-06-23T16:49:49Z</time>
      </trkpt>
      <trkpt lat="43.64495" lon="1.37873">
        <ele>146</ele>
        <time>2023-06-23T16:49:50Z</time>
      </trkpt>
      <trkpt lat="43.64494" lon="1.37873">
        <ele>146</ele>
        <time>2023-06-23T16:49:51Z</time>
      </trkpt>
      <trkpt lat="43.64494" lon="1.37873">
        <ele>147</ele>
        <time>2023-06-23T16:49:52Z</time>
      </trkpt>
      <trkpt lat="43.64491" lon="1.37873">
        <ele>147</ele>
        <time>2023-06-23T16:49:53Z</time>
      </trkpt>
      <trkpt lat="43.64491" lon="1.37873">
        <ele>146</ele>
        <time>2023-06-23T16:49:54Z</time>
      </trkpt>
      <trkpt lat="43.64489" lon="1.37873">
        <ele>146</ele>
        <time>2023-06-23T16:49:55Z</time>
      </trkpt>
      <trkpt lat="43.64486" lon="1.37874">
        <ele>146</ele>
        <time>2023-06-23T16:49:56Z</time>
      </trkpt>
      <trkpt lat="43.6448" lon="1.37876">
        <ele>146</ele>
        <time>2023-06-23T16:49:57Z</time>
      </trkpt>
      <trkpt lat="43.64478" lon="1.37876">
        <ele>146</ele>
        <time>2023-06-23T16:49:58Z</time>
      </trkpt>
      <trkpt lat="43.64472" lon="1.3788">
        <ele>146</ele>
        <time>2023-06-23T16:49:59Z</time>
      </trkpt>
      <trkpt lat="43.6447" lon="1.37881">
        <ele>146</ele>
        <time>2023-06-23T16:50:00Z</time>
      </trkpt>
      <trkpt lat="43.64466" lon="1.37888">
        <ele>146</ele>
        <time>2023-06-23T16:50:01Z</time>
      </trkpt>
      <trkpt lat="43.64464" lon="1.3789">
        <ele>146</ele>
        <time>2023-06-23T16:50:02Z</time>
      </trkpt>
      <trkpt lat="43.64462" lon="1.37896">
        <ele>146</ele>
        <time>2023-06-23T16:50:03Z</time>
      </trkpt>
      <trkpt lat="43.6446" lon="1.37905">
        <ele>146</ele>
        <time>2023-06-23T16:50:04Z</time>
      </trkpt>
      <trkpt lat="43.64459" lon="1.37908">
        <ele>146</ele>
        <time>2023-06-23T16:50:05Z</time>
      </trkpt>
      <trkpt lat="43.64459" lon="1.37917">
        <ele>146</ele>
        <time>2023-06-23T16:50:06Z</time>
      </trkpt>
      <trkpt lat="43.64459" lon="1.37921">
        <ele>146</ele>
        <time>2023-06-23T16:50:07Z</time>
      </trkpt>
      <trkpt lat="43.64459" lon="1.37927">
        <ele>146</ele>
        <time>2023-06-23T16:50:08Z</time>
      </trkpt>
      <trkpt lat="43.64462" lon="1.37936">
        <ele>146</ele>
        <time>2023-06-23T16:50:09Z</time>
      </trkpt>
      <trkpt lat="43.64463" lon="1.37939">
        <ele>146</ele>
        <time>2023-06-23T16:50:10Z</time>
      </trkpt>
      <trkpt lat="43.64466" lon="1.37944">
        <ele>146</ele>
        <time>2023-06-23T16:50:11Z</time>
      </trkpt>
      <trkpt lat="43.64469" lon="1.37947">
        <ele>146</ele>
        <time>2023-06-23T16:50:12Z</time>
      </trkpt>
      <trkpt lat="43.64473" lon="1.3795">
        <ele>146</ele>
        <time>2023-06-23T16:50:13Z</time>
      </trkpt>
      <trkpt lat="43.64476" lon="1.37952">
        <ele>146</ele>
        <time>2023-06-23T16:50:14Z</time>
      </trkpt>
      <trkpt lat="43.6448" lon="1.37955">
        <ele>146</ele>
        <time>2023-06-23T16:50:15Z</time>
      </trkpt>
      <trkpt lat="43.64484" lon="1.37958">
        <ele>146</ele>
        <time>2023-06-23T16:50:16Z</time>
      </trkpt>
      <trkpt lat="43.64488" lon="1.37961">
        <ele>145</ele>
        <time>2023-06-23T16:50:17Z</time>
      </trkpt>
      <trkpt lat="43.64492" lon="1.37964">
        <ele>146</ele>
        <time>2023-06-23T16:50:18Z</time>
      </trkpt>
      <trkpt lat="43.645" lon="1.37969">
        <ele>146</ele>
        <time>2023-06-23T16:50:19Z</time>
      </trkpt>
      <trkpt lat="43.645" lon="1.37969">
        <ele>146</ele>
        <time>2023-06-23T16:50:20Z</time>
      </trkpt>
      <trkpt lat="43.64504" lon="1.37971">
        <ele>146</ele>
        <time>2023-06-23T16:50:21Z</time>
      </trkpt>
      <trkpt lat="43.64508" lon="1.37974">
        <ele>146</ele>
        <time>2023-06-23T16:50:22Z</time>
      </trkpt>
      <trkpt lat="43.64512" lon="1.37976">
        <ele>146</ele>
        <time>2023-06-23T16:50:23Z</time>
      </trkpt>
      <trkpt lat="43.64516" lon="1.37978">
        <ele>146</ele>
        <time>2023-06-23T16:50:24Z</time>
      </trkpt>
      <trkpt lat="43.64521" lon="1.3798">
        <ele>146</ele>
        <time>2023-06-23T16:50:25Z</time>
      </trkpt>
      <trkpt lat="43.64527" lon="1.37983">
        <ele>146</ele>
        <time>2023-06-23T16:50:26Z</time>
      </trkpt>
      <trkpt lat="43.64529" lon="1.37984">
        <ele>146</ele>
        <time>2023-06-23T16:50:27Z</time>
      </trkpt>
      <trkpt lat="43.64535" lon="1.37985">
        <ele>147</ele>
        <time>2023-06-23T16:50:28Z</time>
      </trkpt>
      <trkpt lat="43.64537" lon="1.37985">
        <ele>147</ele>
        <time>2023-06-23T16:50:29Z</time>
      </trkpt>
      <trkpt lat="43.64541" lon="1.37984">
        <ele>146</ele>
        <time>2023-06-23T16:50:30Z</time>
      </trkpt>
      <trkpt lat="43.64546" lon="1.37982">
        <ele>146</ele>
        <time>2023-06-23T16:50:31Z</time>
      </trkpt>
      <trkpt lat="43.64547" lon="1.37981">
        <ele>146</ele>
        <time>2023-06-23T16:50:32Z</time>
      </trkpt>
      <trkpt lat="43.6455" lon="1.37978">
        <ele>146</ele>
        <time>2023-06-23T16:50:33Z</time>
      </trkpt>
      <trkpt lat="43.64554" lon="1.37974">
        <ele>146</ele>
        <time>2023-06-23T16:50:34Z</time>
      </trkpt>
      <trkpt lat="43.64557" lon="1.37969">
        <ele>146</ele>
        <time>2023-06-23T16:50:35Z</time>
      </trkpt>
      <trkpt lat="43.6456" lon="1.37964">
        <ele>146</ele>
        <time>2023-06-23T16:50:36Z</time>
      </trkpt>
      <trkpt lat="43.64562" lon="1.37959">
        <ele>146</ele>
        <time>2023-06-23T16:50:37Z</time>
      </trkpt>
      <trkpt lat="43.64565" lon="1.37948">
        <ele>146</ele>
        <time>2023-06-23T16:50:38Z</time>
      </trkpt>
      <trkpt lat="43.64565" lon="1.37948">
        <ele>146</ele>
        <time>2023-06-23T16:50:39Z</time>
      </trkpt>
      <trkpt lat="43.64565" lon="1.37939">
        <ele>146</ele>
        <time>2023-06-23T16:50:40Z</time>
      </trkpt>
      <trkpt lat="43.64565" lon="1.37936">
        <ele>146</ele>
        <time>2023-06-23T16:50:41Z</time>
      </trkpt>
      <trkpt lat="43.64564" lon="1.3793">
        <ele>146</ele>
        <time>2023-06-23T16:50:42Z</time>
      </trkpt>
      <trkpt lat="43.64561" lon="1.37923">
        <ele>146</ele>
        <time>2023-06-23T16:50:43Z</time>
      </trkpt>
      <trkpt lat="43.64559" lon="1.3792">
        <ele>146</ele>
        <time>2023-06-23T16:50:44Z</time>
      </trkpt>
      <trkpt lat="43.64557" lon="1.37915">
        <ele>146</ele>
        <time>2023-06-23T16:50:45Z</time>
      </trkpt>
      <trkpt lat="43.64554" lon="1.37911">
        <ele>146</ele>
        <time>2023-06-23T16:50:46Z</time>
      </trkpt>
      <trkpt lat="43.64551" lon="1.37908">
        <ele>146</ele>
        <time>2023-06-23T16:50:47Z</time>
      </trkpt>
      <trkpt lat="43.64547" lon="1.37905">
        <ele>146</ele>
        <time>2023-06-23T16:50:48Z</time>
      </trkpt>
      <trkpt lat="43.64543" lon="1.37902">
        <ele>146</ele>
        <time>2023-06-23T16:50:49Z</time>
      </trkpt>
      <trkpt lat="43.64537" lon="1.37899">
        <ele>146</ele>
        <time>2023-06-23T16:50:50Z</time>
      </trkpt>
      <trkpt lat="43.64535" lon="1.37898">
        <ele>146</ele>
        <time>2023-06-23T16:50:51Z</time>
      </trkpt>
      <trkpt lat="43.6453" lon="1.37895">
        <ele>146</ele>
        <time>2023-06-23T16:50:52Z</time>
      </trkpt>
      <trkpt lat="43.64528" lon="1.37894">
        <ele>146</ele>
        <time>2023-06-23T16:50:53Z</time>
      </trkpt>
      <trkpt lat="43.64524" lon="1.37892">
        <ele>146</ele>
        <time>2023-06-23T16:50:54Z</time>
      </trkpt>
      <trkpt lat="43.64518" lon="1.37888">
        <ele>146</ele>
        <time>2023-06-23T16:50:55Z</time>
      </trkpt>
      <trkpt lat="43.64516" lon="1.37887">
        <ele>146</ele>
        <time>2023-06-23T16:50:56Z</time>
      </trkpt>
      <trkpt lat="43.64512" lon="1.37885">
        <ele>146</ele>
        <time>2023-06-23T16:50:57Z</time>
      </trkpt>
      <trkpt lat="43.64508" lon="1.37882">
        <ele>146</ele>
        <time>2023-06-23T16:50:58Z</time>
      </trkpt>
      <trkpt lat="43.64504" lon="1.3788">
        <ele>146</ele>
        <time>2023-06-23T16:50:59Z</time>
      </trkpt>
      <trkpt lat="43.64499" lon="1.37877">
        <ele>146</ele>
        <time>2023-06-23T16:51:00Z</time>
      </trkpt>
      <trkpt lat="43.64497" lon="1.37877">
        <ele>146</ele>
        <time>2023-06-23T16:51:01Z</time>
      </trkpt>
      <trkpt lat="43.64493" lon="1.37875">
        <ele>146</ele>
        <time>2023-06-23T16:51:02Z</time>
      </trkpt>
      <trkpt lat="43.64489" lon="1.37875">
        <ele>146</ele>
        <time>2023-06-23T16:51:03Z</time>
      </trkpt>
      <trkpt lat="43.64487" lon="1.37875">
        <ele>146</ele>
        <time>2023-06-23T16:51:04Z</time>
      </trkpt>
      <trkpt lat="43.64485" lon="1.37874">
        <ele>146</ele>
        <time>2023-06-23T16:51:05Z</time>
      </trkpt>
      <trkpt lat="43.64485" lon="1.37874">
        <ele>146</ele>
        <time>2023-06-23T16:51:06Z</time>
      </trkpt>
      <trkpt lat="43.64482" lon="1.37872">
        <ele>146</ele>
        <time>2023-06-23T16:51:07Z</time>
      </trkpt>
      <trkpt lat="43.64482" lon="1.37872">
        <ele>146</ele>
        <time>2023-06-23T16:51:08Z</time>
      </trkpt>
      <trkpt lat="43.6448" lon="1.37869">
        <ele>146</ele>
        <time>2023-06-23T16:51:09Z</time>
      </trkpt>
      <trkpt lat="43.64478" lon="1.37867">
        <ele>147</ele>
        <time>2023-06-23T16:51:10Z</time>
      </trkpt>
      <trkpt lat="43.64478" lon="1.37867">
        <ele>147</ele>
        <time>2023-06-23T16:51:11Z</time>
      </trkpt>
      <trkpt lat="43.64478" lon="1.37867">
        <ele>147</ele>
        <time>2023-06-23T16:51:12Z</time>
      </trkpt>
      <trkpt lat="43.64476" lon="1.37865">
        <ele>147</ele>
        <time>2023-06-23T16:51:13Z</time>
      </trkpt>
      <trkpt lat="43.64476" lon="1.37865">
        <ele>147</ele>
        <time>2023-06-23T16:51:14Z</time>
      </trkpt>
    </trkseg>
  </trk>
</gpx>